Observation data for Earth on 08/15/2019      Previous  Date       Current Mesonet Observations  Soil Data  Daily Summary Page  Observations in Plain Language
KEA1 150500Z 12010KT 26/14 A302 RMK A01 T02550139  RH  049%=      5-min Rain = 0
KEA1 150501Z 12010KT 25/14 A3019 RMK A01 T02540138  RH  049%=      5-min Rain = 0
KEA1 150502Z 12011KT 25/14 A3019 RMK A01 T02540139  RH  049%=      5-min Rain = 0
KEA1 150503Z 12009KT 25/14 A3019 RMK A01 T02540139  RH  049%=      5-min Rain = 0
KEA1 150504Z 12010KT 25/14 A3019 RMK A01 T02540140  RH  049%=      5-min Rain = 0
KEA1 150505Z 12010KT 25/14 A3019 RMK A01 T02530140  RH  049%=      5-min Rain = 0
KEA1 150506Z 12009KT 25/14 A3019 RMK A01 T02530140  RH  049%=      5-min Rain = 0
KEA1 150507Z 13011KT 25/14 A3019 RMK A01 T02530140  RH  050%=      5-min Rain = 0
KEA1 150508Z 12011KT 25/14 A3019 RMK A01 T02530141  RH  050%=      5-min Rain = 0
KEA1 150509Z 13010KT 25/14 A3019 RMK A01 T02530141  RH  050%=      5-min Rain = 0
KEA1 150510Z 12011KT 25/14 A3019 RMK A01 T02530142  RH  050%=      5-min Rain = 0
KEA1 150511Z 13010KT 25/14 A3019 RMK A01 T02530142  RH  050%=      5-min Rain = 0
KEA1 150512Z 13010KT 25/14 A302 RMK A01 T02540142  RH  050%=      5-min Rain = 0
KEA1 150513Z 13010KT 25/14 A302 RMK A01 T02540142  RH  050%=      5-min Rain = 0
KEA1 150514Z 12010KT 25/14 A302 RMK A01 T02540142  RH  050%=      5-min Rain = 0
KEA1 150515Z 13010KT 25/14 A302 RMK A01 T02540143  RH  050%=      5-min Rain = 0
KEA1 150516Z 13010KT 25/14 A302 RMK A01 T02540143  RH  050%=      5-min Rain = 0
KEA1 150517Z 13010KT 25/14 A302 RMK A01 T02540144  RH  050%=      5-min Rain = 0
KEA1 150518Z 13010KT 25/14 A302 RMK A01 T02540143  RH  050%=      5-min Rain = 0
KEA1 150519Z 12008KT 25/14 A302 RMK A01 T02540144  RH  050%=      5-min Rain = 0
KEA1 150520Z 13009KT 25/14 A302 RMK A01 T02540144  RH  050%=      5-min Rain = 0
KEA1 150521Z 13009KT 25/14 A302 RMK A01 T02540144  RH  051%=      5-min Rain = 0
KEA1 150522Z 13011KT 25/14 A302 RMK A01 T02540144  RH  051%=      5-min Rain = 0
KEA1 150523Z 13010KT 25/15 A302 RMK A01 T02540145  RH  051%=      5-min Rain = 0
KEA1 150524Z 12010KT 26/15 A302 RMK A01 T02550145  RH  051%=      5-min Rain = 0
KEA1 150525Z 13009KT 26/15 A302 RMK A01 T02550145  RH  051%=      5-min Rain = 0
KEA1 150526Z 13009KT 26/15 A3021 RMK A01 T02550145  RH  051%=      5-min Rain = 0
KEA1 150527Z 13009KT 26/15 A3021 RMK A01 T02550146  RH  051%=      5-min Rain = 0
KEA1 150528Z 13009KT 26/15 A3021 RMK A01 T02550146  RH  051%=      5-min Rain = 0
KEA1 150529Z 14009KT 26/15 A3021 RMK A01 T02550146  RH  051%=      5-min Rain = 0
KEA1 150530Z 13009KT 26/15 A3021 RMK A01 T02550146  RH  051%=      5-min Rain = 0
KEA1 150531Z 14009KT 26/15 A3021 RMK A01 T02550147  RH  051%=      5-min Rain = 0
KEA1 150532Z 14009KT 26/15 A3021 RMK A01 T02550147  RH  051%=      5-min Rain = 0
KEA1 150533Z 14009KT 26/15 A3021 RMK A01 T02550147  RH  051%=      5-min Rain = 0
KEA1 150534Z 16008KT 26/15 A3022 RMK A01 T02550147  RH  051%=      5-min Rain = 0
KEA1 150535Z 17007KT 26/15 A3022 RMK A01 T02550146  RH  051%=      5-min Rain = 0
KEA1 150536Z 18008KT 26/15 A3022 RMK A01 T02550147  RH  051%=      5-min Rain = 0
KEA1 150537Z 21009KT 26/15 A3023 RMK A01 T02550147  RH  051%=      5-min Rain = 0
KEA1 150538Z 21011KT 25/15 A3023 RMK A01 T02540146  RH  051%=      5-min Rain = 0
KEA1 150539Z 22014KT 25/15 A3023 RMK A01 T02540149  RH  052%=      5-min Rain = 0
KEA1 150540Z 22011KT 26/15 A3024 RMK A01 T02550153  RH  053%=      5-min Rain = 0
KEA1 150541Z 21009KT 26/15 A3024 RMK A01 T02560153  RH  053%=      5-min Rain = 0
KEA1 150542Z 21009KT 26/15 A3023 RMK A01 T02570149  RH  051%=      5-min Rain = 0
KEA1 150543Z 21008KT 26/15 A3024 RMK A01 T02590146  RH  050%=      5-min Rain = 0
KEA1 150544Z 21010KT 26/15 A3024 RMK A01 T02600146  RH  049%=      5-min Rain = 0
KEA1 150545Z 21010KT 26/15 A3023 RMK A01 T02610145  RH  049%=      5-min Rain = 0
KEA1 150546Z 17009KT 26/15 A3023 RMK A01 T02620145  RH  048%=      5-min Rain = 0
KEA1 150547Z 19011KT 27/14 A3023 RMK A01 T02660143  RH  047%=      5-min Rain = 0
KEA1 150548Z 18008KT 27/14 A3023 RMK A01 T02670143  RH  046%=      5-min Rain = 0
KEA1 150549Z 17007KT 27/14 A3023 RMK A01 T02660142  RH  046%=      5-min Rain = 0
KEA1 150550Z 16009KT 27/14 A3023 RMK A01 T02650142  RH  047%=      5-min Rain = 0
KEA1 150551Z 17009KT 27/14 A3024 RMK A01 T02650142  RH  047%=      5-min Rain = 0
KEA1 150552Z 18007KT 27/14 A3024 RMK A01 T02650142  RH  047%=      5-min Rain = 0
KEA1 150553Z 18007KT 26/14 A3024 RMK A01 T02640142  RH  047%=      5-min Rain = 0
KEA1 150554Z 19009KT 26/14 A3024 RMK A01 T02640141  RH  047%=      5-min Rain = 0
KEA1 150555Z 18008KT 27/14 A3024 RMK A01 T02650140  RH  046%=      5-min Rain = 0
KEA1 150556Z 18007KT 27/14 A3024 RMK A01 T02650139  RH  046%=      5-min Rain = 0
KEA1 150557Z 18006KT 27/14 A3023 RMK A01 T02660138  RH  045%=      5-min Rain = 0
KEA1 150558Z 16006KT 27/14 A3023 RMK A01 T02660136  RH  045%=      5-min Rain = 0
KEA1 150559Z 16005KT 27/14 A3023 RMK A01 T02670138  RH  045%=      5-min Rain = 0
KEA1 150600Z 17007KT 27/14 A3023 RMK A01 T02670139  RH  045%=      5-min Rain = 0
KEA1 150601Z 18009KT 27/14 A3023 RMK A01 T02660137  RH  045%=      5-min Rain = 0
KEA1 150602Z 19009KT 27/13 A3023 RMK A01 T02660133  RH  044%=      5-min Rain = 0
KEA1 150603Z 19008KT 27/13 A3024 RMK A01 T02660131  RH  043%=      5-min Rain = 0
KEA1 150604Z 20009KT 27/13 A3024 RMK A01 T02650131  RH  044%=      5-min Rain = 0
KEA1 150605Z 20009KT 26/13 A3024 RMK A01 T02640131  RH  044%=      5-min Rain = 0
KEA1 150606Z 22009KT 26/13 A3024 RMK A01 T02630134  RH  045%=      5-min Rain = 0
KEA1 150607Z 22011KT 26/13 A3024 RMK A01 T02610134  RH  045%=      5-min Rain = 0
KEA1 150608Z 22009KT 26/14 A3023 RMK A01 T02590135  RH  046%=      5-min Rain = 0
KEA1 150609Z 22008KT 26/14 A3023 RMK A01 T02580135  RH  047%=      5-min Rain = 0
KEA1 150610Z 22009KT 26/14 A3023 RMK A01 T02570137  RH  047%=      5-min Rain = 0
KEA1 150611Z 22011KT 26/14 A3023 RMK A01 T02560135  RH  047%=      5-min Rain = 0
KEA1 150612Z 22008KT 26/14 A3023 RMK A01 T02550136  RH  048%=      5-min Rain = 0
KEA1 150613Z 21009KT 26/14 A3023 RMK A01 T02550135  RH  048%=      5-min Rain = 0
KEA1 150614Z 21010KT 25/13 A3023 RMK A01 T02540132  RH  047%=      5-min Rain = 0
KEA1 150615Z 22010KT 25/13 A3023 RMK A01 T02540132  RH  047%=      5-min Rain = 0
KEA1 150616Z 23010KT 25/13 A3023 RMK A01 T02530134  RH  047%=      5-min Rain = 0
KEA1 150617Z 23008KT 25/14 A3023 RMK A01 T02530139  RH  049%=      5-min Rain = 0
KEA1 150618Z 24010KT 25/14 A3023 RMK A01 T02520137  RH  049%=      5-min Rain = 0
KEA1 150619Z 23010KT 25/13 A3023 RMK A01 T02520129  RH  047%=      5-min Rain = 0
KEA1 150620Z 23010KT 25/13 A3023 RMK A01 T02520129  RH  046%=      5-min Rain = 0
KEA1 150621Z 23011KT 25/13 A3023 RMK A01 T02520133  RH  048%=      5-min Rain = 0
KEA1 150622Z 22009KT 25/13 A3023 RMK A01 T02510134  RH  048%=      5-min Rain = 0
KEA1 150623Z 22009KT 25/13 A3023 RMK A01 T02510134  RH  048%=      5-min Rain = 0
KEA1 150624Z 21007KT 25/14 A3023 RMK A01 T02510135  RH  048%=      5-min Rain = 0
KEA1 150625Z 21009KT 25/13 A3023 RMK A01 T02500133  RH  048%=      5-min Rain = 0
KEA1 150626Z 20010KT 25/13 A3023 RMK A01 T02490126  RH  047%=      5-min Rain = 0
KEA1 150627Z 20011KT 25/13 A3023 RMK A01 T02470126  RH  047%=      5-min Rain = 0
KEA1 150628Z 21009KT 25/13 A3023 RMK A01 T02460127  RH  047%=      5-min Rain = 0
KEA1 150629Z 22009KT 25/13 A3023 RMK A01 T02460129  RH  048%=      5-min Rain = 0
KEA1 150630Z 23008KT 25/14 A3023 RMK A01 T02480135  RH  049%=      5-min Rain = 0
KEA1 150631Z 22009KT 25/14 A3023 RMK A01 T02490137  RH  050%=      5-min Rain = 0
KEA1 150632Z 22008KT 25/14 A3023 RMK A01 T02480137  RH  050%=      5-min Rain = 0
KEA1 150633Z 23006KT 25/14 A3023 RMK A01 T02480141  RH  051%=      5-min Rain = 0
KEA1 150634Z 23007KT 25/14 A3023 RMK A01 T02480140  RH  051%=      5-min Rain = 0
KEA1 150635Z 23007KT 25/14 A3023 RMK A01 T02480135  RH  049%=      5-min Rain = 0
KEA1 150636Z 23007KT 25/13 A3023 RMK A01 T02470134  RH  049%=      5-min Rain = 0
KEA1 150637Z 21006KT 25/14 A3023 RMK A01 T02470137  RH  050%=      5-min Rain = 0
KEA1 150638Z 21005KT 25/14 A3023 RMK A01 T02470138  RH  051%=      5-min Rain = 0
KEA1 150639Z 20006KT 25/14 A3023 RMK A01 T02460135  RH  050%=      5-min Rain = 0
KEA1 150640Z 19007KT 24/13 A3023 RMK A01 T02440129  RH  049%=      5-min Rain = 0
KEA1 150641Z 19008KT 24/13 A3023 RMK A01 T02440127  RH  048%=      5-min Rain = 0
KEA1 150642Z 19008KT 24/13 A3023 RMK A01 T02430127  RH  048%=      5-min Rain = 0
KEA1 150643Z 20006KT 24/13 A3023 RMK A01 T02420127  RH  049%=      5-min Rain = 0
KEA1 150644Z 20005KT 24/13 A3023 RMK A01 T02410127  RH  049%=      5-min Rain = 0
KEA1 150645Z 20005KT 24/13 A3023 RMK A01 T02400127  RH  049%=      5-min Rain = 0
KEA1 150646Z 20005KT 24/13 A3023 RMK A01 T02400128  RH  049%=      5-min Rain = 0
KEA1 150647Z 19005KT 24/13 A3023 RMK A01 T02400128  RH  049%=      5-min Rain = 0
KEA1 150648Z 20005KT 24/13 A3023 RMK A01 T02390128  RH  050%=      5-min Rain = 0
KEA1 150649Z 19005KT 24/13 A3023 RMK A01 T02390128  RH  050%=      5-min Rain = 0
KEA1 150650Z 20004KT 24/13 A3023 RMK A01 T02380130  RH  051%=      5-min Rain = 0
KEA1 150651Z 20005KT 24/13 A3023 RMK A01 T02370129  RH  051%=      5-min Rain = 0
KEA1 150652Z 20005KT 24/13 A3023 RMK A01 T02370129  RH  051%=      5-min Rain = 0
KEA1 150653Z 19004KT 24/13 A3023 RMK A01 T02370129  RH  051%=      5-min Rain = 0
KEA1 150654Z 19004KT 24/13 A3023 RMK A01 T02370128  RH  051%=      5-min Rain = 0
KEA1 150655Z 18005KT 24/13 A3023 RMK A01 T02360127  RH  051%=      5-min Rain = 0
KEA1 150656Z 17005KT 24/13 A3023 RMK A01 T02350127  RH  051%=      5-min Rain = 0
KEA1 150657Z 16006KT 23/13 A3023 RMK A01 T02340127  RH  051%=      5-min Rain = 0
KEA1 150658Z 16006KT 23/13 A3023 RMK A01 T02320127  RH  051%=      5-min Rain = 0
KEA1 150659Z 16006KT 23/13 A3023 RMK A01 T02310127  RH  052%=      5-min Rain = 0
KEA1 150700Z 17006KT 23/13 A3023 RMK A01 T02310127  RH  052%=      5-min Rain = 0
KEA1 150701Z 19005KT 23/13 A3023 RMK A01 T02300127  RH  052%=      5-min Rain = 0
KEA1 150702Z 19005KT 23/13 A3023 RMK A01 T02300127  RH  052%=      5-min Rain = 0
KEA1 150703Z 20005KT 23/13 A3023 RMK A01 T02290127  RH  052%=      5-min Rain = 0
KEA1 150704Z 20005KT 23/13 A3023 RMK A01 T02290127  RH  053%=      5-min Rain = 0
KEA1 150705Z 19005KT 23/13 A3023 RMK A01 T02280127  RH  053%=      5-min Rain = 0
KEA1 150706Z 19005KT 23/13 A3023 RMK A01 T02280127  RH  053%=      5-min Rain = 0
KEA1 150707Z 19005KT 23/13 A3023 RMK A01 T02270127  RH  053%=      5-min Rain = 0
KEA1 150708Z 19005KT 23/13 A3023 RMK A01 T02270127  RH  053%=      5-min Rain = 0
KEA1 150709Z 19004KT 23/13 A3023 RMK A01 T02260127  RH  053%=      5-min Rain = 0
KEA1 150710Z 19004KT 23/13 A3023 RMK A01 T02260127  RH  054%=      5-min Rain = 0
KEA1 150711Z 20004KT 23/13 A3023 RMK A01 T02260127  RH  054%=      5-min Rain = 0
KEA1 150712Z 20003KT 23/13 A3023 RMK A01 T02260127  RH  054%=      5-min Rain = 0
KEA1 150713Z 20003KT 23/13 A3023 RMK A01 T02260127  RH  054%=      5-min Rain = 0
KEA1 150714Z 20004KT 23/13 A3023 RMK A01 T02250127  RH  054%=      5-min Rain = 0
KEA1 150715Z 20004KT 22/13 A3023 RMK A01 T02240127  RH  054%=      5-min Rain = 0
KEA1 150716Z 20003KT 22/13 A3023 RMK A01 T02240128  RH  054%=      5-min Rain = 0
KEA1 150717Z 20003KT 22/13 A3023 RMK A01 T02240128  RH  055%=      5-min Rain = 0
KEA1 150718Z 19003KT 22/13 A3023 RMK A01 T02240129  RH  055%=      5-min Rain = 0
KEA1 150719Z 19004KT 22/13 A3023 RMK A01 T02240129  RH  055%=      5-min Rain = 0
KEA1 150720Z 19004KT 22/13 A3023 RMK A01 T02240130  RH  055%=      5-min Rain = 0
KEA1 150721Z 19004KT 22/13 A3023 RMK A01 T02240129  RH  055%=      5-min Rain = 0
KEA1 150722Z 19004KT 22/13 A3023 RMK A01 T02240129  RH  055%=      5-min Rain = 0
KEA1 150723Z 18005KT 22/13 A3023 RMK A01 T02240129  RH  055%=      5-min Rain = 0
KEA1 150724Z 18005KT 22/13 A3023 RMK A01 T02230129  RH  055%=      5-min Rain = 0
KEA1 150725Z 18006KT 22/13 A3023 RMK A01 T02230128  RH  055%=      5-min Rain = 0
KEA1 150726Z 18006KT 22/13 A3023 RMK A01 T02210128  RH  056%=      5-min Rain = 0
KEA1 150727Z 17006KT 22/13 A3023 RMK A01 T02200128  RH  056%=      5-min Rain = 0
KEA1 150728Z 18006KT 22/13 A3023 RMK A01 T02200129  RH  056%=      5-min Rain = 0
KEA1 150729Z 19006KT 22/13 A3023 RMK A01 T02190129  RH  056%=      5-min Rain = 0
KEA1 150730Z 19006KT 22/13 A3023 RMK A01 T02190129  RH  056%=      5-min Rain = 0
KEA1 150731Z 20006KT 22/13 A3023 RMK A01 T02190129  RH  057%=      5-min Rain = 0
KEA1 150732Z 20006KT 22/13 A3023 RMK A01 T02190129  RH  057%=      5-min Rain = 0
KEA1 150733Z 21007KT 22/13 A3023 RMK A01 T02200130  RH  057%=      5-min Rain = 0
KEA1 150734Z 21006KT 22/13 A3023 RMK A01 T02210130  RH  056%=      5-min Rain = 0
KEA1 150735Z 22006KT 22/13 A3023 RMK A01 T02230131  RH  056%=      5-min Rain = 0
KEA1 150736Z 24005KT 22/13 A3023 RMK A01 T02240132  RH  056%=      5-min Rain = 0
KEA1 150737Z 23004KT 23/13 A3023 RMK A01 T02250132  RH  056%=      5-min Rain = 0
KEA1 150738Z 23005KT 23/13 A3023 RMK A01 T02250133  RH  056%=      5-min Rain = 0
KEA1 150739Z 23004KT 23/14 A3023 RMK A01 T02250135  RH  057%=      5-min Rain = 0
KEA1 150740Z 23004KT 23/14 A3023 RMK A01 T02260137  RH  057%=      5-min Rain = 0
KEA1 150741Z 24004KT 23/14 A3023 RMK A01 T02260137  RH  057%=      5-min Rain = 0
KEA1 150742Z 24005KT 23/14 A3023 RMK A01 T02260139  RH  058%=      5-min Rain = 0
KEA1 150743Z 23005KT 23/14 A3023 RMK A01 T02270140  RH  058%=      5-min Rain = 0
KEA1 150744Z 22005KT 23/14 A3023 RMK A01 T02270139  RH  057%=      5-min Rain = 0
KEA1 150745Z 21004KT 23/14 A3023 RMK A01 T02270137  RH  057%=      5-min Rain = 0
KEA1 150746Z 19004KT 23/14 A3023 RMK A01 T02250136  RH  057%=      5-min Rain = 0
KEA1 150747Z 18004KT 22/14 A3023 RMK A01 T02240135  RH  057%=      5-min Rain = 0
KEA1 150748Z 16005KT 22/13 A3023 RMK A01 T02240134  RH  057%=      5-min Rain = 0
KEA1 150749Z 15006KT 22/13 A3023 RMK A01 T02220131  RH  056%=      5-min Rain = 0
KEA1 150750Z 16006KT 22/13 A3023 RMK A01 T02200131  RH  057%=      5-min Rain = 0
KEA1 150751Z 17005KT 22/13 A3023 RMK A01 T02190131  RH  057%=      5-min Rain = 0
KEA1 150752Z 18005KT 22/13 A3023 RMK A01 T02190131  RH  057%=      5-min Rain = 0
KEA1 150753Z 18005KT 22/13 A3023 RMK A01 T02200131  RH  057%=      5-min Rain = 0
KEA1 150754Z 19005KT 22/13 A3023 RMK A01 T02200131  RH  057%=      5-min Rain = 0
KEA1 150755Z 18005KT 22/13 A3023 RMK A01 T02210131  RH  057%=      5-min Rain = 0
KEA1 150756Z 19004KT 22/13 A3022 RMK A01 T02210131  RH  057%=      5-min Rain = 0
KEA1 150757Z 19004KT 22/13 A3022 RMK A01 T02210131  RH  057%=      5-min Rain = 0
KEA1 150758Z 19004KT 22/13 A3022 RMK A01 T02210132  RH  057%=      5-min Rain = 0
KEA1 150759Z 19005KT 22/13 A3022 RMK A01 T02220133  RH  057%=      5-min Rain = 0
KEA1 150800Z 19006KT 22/13 A3022 RMK A01 T02220132  RH  057%=      5-min Rain = 0
KEA1 150801Z 19006KT 22/13 A3022 RMK A01 T02210132  RH  057%=      5-min Rain = 0
KEA1 150802Z 19006KT 22/13 A3022 RMK A01 T02210131  RH  057%=      5-min Rain = 0
KEA1 150803Z 19007KT 22/13 A3022 RMK A01 T02200131  RH  057%=      5-min Rain = 0
KEA1 150804Z 19007KT 22/13 A3021 RMK A01 T02200131  RH  057%=      5-min Rain = 0
KEA1 150805Z 19007KT 22/13 A3021 RMK A01 T02190131  RH  057%=      5-min Rain = 0
KEA1 150806Z 19007KT 22/13 A3021 RMK A01 T02180131  RH  058%=      5-min Rain = 0
KEA1 150807Z 19007KT 22/13 A3021 RMK A01 T02170131  RH  058%=      5-min Rain = 0
KEA1 150808Z 19007KT 22/13 A3022 RMK A01 T02170131  RH  058%=      5-min Rain = 0
KEA1 150809Z 19006KT 22/13 A3022 RMK A01 T02160131  RH  058%=      5-min Rain = 0
KEA1 150810Z 19007KT 22/13 A3022 RMK A01 T02160131  RH  059%=      5-min Rain = 0
KEA1 150811Z 19006KT 22/13 A3022 RMK A01 T02150131  RH  059%=      5-min Rain = 0
KEA1 150812Z 20005KT 22/13 A3022 RMK A01 T02150131  RH  059%=      5-min Rain = 0
KEA1 150813Z 21004KT 22/13 A3022 RMK A01 T02150131  RH  059%=      5-min Rain = 0
KEA1 150814Z 21003KT 22/13 A3022 RMK A01 T02150131  RH  059%=      5-min Rain = 0
KEA1 150815Z 20002KT 22/13 A3022 RMK A01 T02160131  RH  058%=      5-min Rain = 0
KEA1 150816Z 20003KT 22/13 A3022 RMK A01 T02170131  RH  058%=      5-min Rain = 0
KEA1 150817Z 20003KT 22/13 A3022 RMK A01 T02180132  RH  058%=      5-min Rain = 0
KEA1 150818Z 20002KT 22/13 A3021 RMK A01 T02180131  RH  058%=      5-min Rain = 0
KEA1 150819Z 20002KT 22/13 A3021 RMK A01 T02170131  RH  058%=      5-min Rain = 0
KEA1 150820Z 19003KT 22/13 A3021 RMK A01 T02160131  RH  058%=      5-min Rain = 0
KEA1 150821Z 19003KT 22/13 A3021 RMK A01 T02160131  RH  058%=      5-min Rain = 0
KEA1 150822Z 19003KT 22/13 A3021 RMK A01 T02160131  RH  058%=      5-min Rain = 0
KEA1 150823Z 18004KT 22/13 A3021 RMK A01 T02160131  RH  058%=      5-min Rain = 0
KEA1 150824Z 18005KT 21/13 A3021 RMK A01 T02140130  RH  059%=      5-min Rain = 0
KEA1 150825Z 18005KT 21/13 A3021 RMK A01 T02130131  RH  059%=      5-min Rain = 0
KEA1 150826Z 17005KT 21/13 A3021 RMK A01 T02120130  RH  059%=      5-min Rain = 0
KEA1 150827Z 17005KT 21/13 A3021 RMK A01 T02110130  RH  060%=      5-min Rain = 0
KEA1 150828Z 17005KT 21/13 A3021 RMK A01 T02090130  RH  060%=      5-min Rain = 0
KEA1 150829Z 17004KT 21/13 A3021 RMK A01 T02090130  RH  061%=      5-min Rain = 0
KEA1 150830Z 18005KT 21/13 A3021 RMK A01 T02090130  RH  061%=      5-min Rain = 0
KEA1 150831Z 18005KT 21/13 A3021 RMK A01 T02100130  RH  060%=      5-min Rain = 0
KEA1 150832Z 18005KT 21/13 A3021 RMK A01 T02100130  RH  060%=      5-min Rain = 0
KEA1 150833Z 17004KT 21/13 A3021 RMK A01 T02110131  RH  060%=      5-min Rain = 0
KEA1 150834Z 17005KT 21/13 A3021 RMK A01 T02120131  RH  060%=      5-min Rain = 0
KEA1 150835Z 17005KT 21/13 A3021 RMK A01 T02120131  RH  060%=      5-min Rain = 0
KEA1 150836Z 17005KT 21/13 A3021 RMK A01 T02120131  RH  060%=      5-min Rain = 0
KEA1 150837Z 17005KT 21/13 A3021 RMK A01 T02120131  RH  060%=      5-min Rain = 0
KEA1 150838Z 17005KT 21/13 A3021 RMK A01 T02110130  RH  060%=      5-min Rain = 0
KEA1 150839Z 17005KT 21/13 A3021 RMK A01 T02110131  RH  060%=      5-min Rain = 0
KEA1 150840Z 18005KT 21/13 A3021 RMK A01 T02100130  RH  060%=      5-min Rain = 0
KEA1 150841Z 18005KT 21/13 A3021 RMK A01 T02090130  RH  060%=      5-min Rain = 0
KEA1 150842Z 19004KT 21/13 A3021 RMK A01 T02090131  RH  061%=      5-min Rain = 0
KEA1 150843Z 19005KT 21/13 A3021 RMK A01 T02090130  RH  061%=      5-min Rain = 0
KEA1 150844Z 19005KT 21/13 A3021 RMK A01 T02090130  RH  061%=      5-min Rain = 0
KEA1 150845Z 19004KT 21/13 A3021 RMK A01 T02090130  RH  061%=      5-min Rain = 0
KEA1 150846Z 19004KT 21/13 A3021 RMK A01 T02090130  RH  060%=      5-min Rain = 0
KEA1 150847Z 18004KT 21/13 A3021 RMK A01 T02090130  RH  061%=      5-min Rain = 0
KEA1 150848Z 18004KT 21/13 A3021 RMK A01 T02090131  RH  061%=      5-min Rain = 0
KEA1 150849Z 18005KT 21/13 A3021 RMK A01 T02090130  RH  061%=      5-min Rain = 0
KEA1 150850Z 18005KT 21/13 A3021 RMK A01 T02080129  RH  061%=      5-min Rain = 0
KEA1 150851Z 18005KT 21/13 A3021 RMK A01 T02060129  RH  061%=      5-min Rain = 0
KEA1 150852Z 18005KT 21/13 A3021 RMK A01 T02050130  RH  062%=      5-min Rain = 0
KEA1 150853Z 17004KT 21/13 A3021 RMK A01 T02050130  RH  062%=      5-min Rain = 0
KEA1 150854Z 18004KT 20/13 A3021 RMK A01 T02040129  RH  062%=      5-min Rain = 0
KEA1 150855Z 18004KT 20/13 A3021 RMK A01 T02040129  RH  062%=      5-min Rain = 0
KEA1 150856Z 18004KT 21/13 A3021 RMK A01 T02050130  RH  062%=      5-min Rain = 0
KEA1 150857Z 17004KT 20/13 A3021 RMK A01 T02040130  RH  062%=      5-min Rain = 0
KEA1 150858Z 16003KT 21/13 A3021 RMK A01 T02050130  RH  062%=      5-min Rain = 0
KEA1 150859Z 16004KT 21/13 A3021 RMK A01 T02060130  RH  062%=      5-min Rain = 0
KEA1 150900Z 16005KT 21/13 A3021 RMK A01 T02060129  RH  061%=      5-min Rain = 0
KEA1 150901Z 16005KT 21/13 A3021 RMK A01 T02050129  RH  061%=      5-min Rain = 0
KEA1 150902Z 15006KT 20/13 A3021 RMK A01 T02040129  RH  062%=      5-min Rain = 0
KEA1 150903Z 15006KT 20/13 A302 RMK A01 T02030129  RH  062%=      5-min Rain = 0
KEA1 150904Z 15007KT 20/13 A302 RMK A01 T02020129  RH  063%=      5-min Rain = 0
KEA1 150905Z 14007KT 20/13 A302 RMK A01 T02010129  RH  063%=      5-min Rain = 0
KEA1 150906Z 14008KT 20/13 A302 RMK A01 T02010129  RH  063%=      5-min Rain = 0
KEA1 150907Z 14007KT 20/13 A302 RMK A01 T02010130  RH  063%=      5-min Rain = 0
KEA1 150908Z 14007KT 20/13 A302 RMK A01 T02020130  RH  063%=      5-min Rain = 0
KEA1 150909Z 14008KT 20/13 A302 RMK A01 T02030129  RH  063%=      5-min Rain = 0
KEA1 150910Z 14008KT 20/13 A302 RMK A01 T02030129  RH  062%=      5-min Rain = 0
KEA1 150911Z 14008KT 20/13 A302 RMK A01 T02030129  RH  062%=      5-min Rain = 0
KEA1 150912Z 13009KT 20/13 A3019 RMK A01 T02020129  RH  063%=      5-min Rain = 0
KEA1 150913Z 13009KT 20/13 A3019 RMK A01 T02030129  RH  062%=      5-min Rain = 0
KEA1 150914Z 14009KT 20/13 A3019 RMK A01 T02040129  RH  062%=      5-min Rain = 0
KEA1 150915Z 14009KT 20/13 A3019 RMK A01 T02040128  RH  062%=      5-min Rain = 0
KEA1 150916Z 15009KT 20/13 A3019 RMK A01 T02040129  RH  062%=      5-min Rain = 0
KEA1 150917Z 15008KT 20/13 A3019 RMK A01 T02040129  RH  062%=      5-min Rain = 0
KEA1 150918Z 14008KT 20/13 A3019 RMK A01 T02030129  RH  062%=      5-min Rain = 0
KEA1 150919Z 14008KT 20/13 A3019 RMK A01 T02030129  RH  062%=      5-min Rain = 0
KEA1 150920Z 14009KT 20/13 A3019 RMK A01 T02040129  RH  062%=      5-min Rain = 0
KEA1 150921Z 14009KT 21/13 A3019 RMK A01 T02050129  RH  062%=      5-min Rain = 0
KEA1 150922Z 13009KT 21/13 A3019 RMK A01 T02050129  RH  062%=      5-min Rain = 0
KEA1 150923Z 14009KT 21/13 A3019 RMK A01 T02060129  RH  061%=      5-min Rain = 0
KEA1 150924Z 13010KT 21/13 A3019 RMK A01 T02070129  RH  061%=      5-min Rain = 0
KEA1 150925Z 13010KT 21/13 A3018 RMK A01 T02080129  RH  061%=      5-min Rain = 0
KEA1 150926Z 13009KT 21/13 A3018 RMK A01 T02090129  RH  060%=      5-min Rain = 0
KEA1 150927Z 13009KT 21/13 A3018 RMK A01 T02100129  RH  060%=      5-min Rain = 0
KEA1 150928Z 13009KT 21/13 A3018 RMK A01 T02110129  RH  059%=      5-min Rain = 0
KEA1 150929Z 12008KT 21/13 A3018 RMK A01 T02110129  RH  059%=      5-min Rain = 0
KEA1 150930Z 12008KT 21/13 A3018 RMK A01 T02110128  RH  059%=      5-min Rain = 0
KEA1 150931Z 12008KT 21/13 A3018 RMK A01 T02110128  RH  059%=      5-min Rain = 0
KEA1 150932Z 12008KT 21/13 A3018 RMK A01 T02120128  RH  059%=      5-min Rain = 0
KEA1 150933Z 12008KT 21/13 A3018 RMK A01 T02120128  RH  059%=      5-min Rain = 0
KEA1 150934Z 12008KT 21/13 A3018 RMK A01 T02120128  RH  059%=      5-min Rain = 0
KEA1 150935Z 12007KT 21/13 A3018 RMK A01 T02110128  RH  059%=      5-min Rain = 0
KEA1 150936Z 12007KT 21/13 A3018 RMK A01 T02110129  RH  059%=      5-min Rain = 0
KEA1 150937Z 11006KT 21/13 A3018 RMK A01 T02100128  RH  059%=      5-min Rain = 0
KEA1 150938Z 12006KT 21/13 A3018 RMK A01 T02090128  RH  060%=      5-min Rain = 0
KEA1 150939Z 12006KT 21/13 A3018 RMK A01 T02080128  RH  060%=      5-min Rain = 0
KEA1 150940Z 12006KT 21/13 A3018 RMK A01 T02080128  RH  060%=      5-min Rain = 0
KEA1 150941Z 12006KT 21/13 A3018 RMK A01 T02080128  RH  060%=      5-min Rain = 0
KEA1 150942Z 13005KT 21/13 A3018 RMK A01 T02070128  RH  060%=      5-min Rain = 0
KEA1 150943Z 13005KT 21/13 A3018 RMK A01 T02070128  RH  060%=      5-min Rain = 0
KEA1 150944Z 14004KT 21/13 A3018 RMK A01 T02070128  RH  061%=      5-min Rain = 0
KEA1 150945Z 14005KT 21/13 A3018 RMK A01 T02060128  RH  061%=      5-min Rain = 0
KEA1 150946Z 14005KT 21/13 A3018 RMK A01 T02050127  RH  061%=      5-min Rain = 0
KEA1 150947Z 14005KT 20/13 A3018 RMK A01 T02040127  RH  062%=      5-min Rain = 0
KEA1 150948Z 14005KT 20/13 A3018 RMK A01 T02030127  RH  062%=      5-min Rain = 0
KEA1 150949Z 15005KT 20/13 A3018 RMK A01 T02020127  RH  062%=      5-min Rain = 0
KEA1 150950Z 15004KT 20/13 A3018 RMK A01 T02020127  RH  062%=      5-min Rain = 0
KEA1 150951Z 15005KT 20/13 A3018 RMK A01 T02010127  RH  062%=      5-min Rain = 0
KEA1 150952Z 15005KT 20/13 A3018 RMK A01 T02000127  RH  063%=      5-min Rain = 0
KEA1 150953Z 15005KT 20/13 A3018 RMK A01 T02000127  RH  063%=      5-min Rain = 0
KEA1 150954Z 14005KT 20/13 A3018 RMK A01 T02000127  RH  063%=      5-min Rain = 0
KEA1 150955Z 14005KT 20/13 A3018 RMK A01 T02000127  RH  063%=      5-min Rain = 0
KEA1 150956Z 14006KT 20/13 A3018 RMK A01 T01990127  RH  063%=      5-min Rain = 0
KEA1 150957Z 15006KT 20/13 A3018 RMK A01 T01990127  RH  063%=      5-min Rain = 0
KEA1 150958Z 15006KT 20/13 A3018 RMK A01 T01980127  RH  063%=      5-min Rain = 0
KEA1 150959Z 15006KT 20/13 A3018 RMK A01 T01980127  RH  064%=      5-min Rain = 0
KEA1 151000Z 15006KT 20/13 A3018 RMK A01 T01980127  RH  064%=      5-min Rain = 0
KEA1 151001Z 16006KT 20/13 A3018 RMK A01 T01970127  RH  064%=      5-min Rain = 0
KEA1 151002Z 17005KT 20/13 A3018 RMK A01 T01960126  RH  064%=      5-min Rain = 0
KEA1 151003Z 16005KT 19/13 A3018 RMK A01 T01940126  RH  064%=      5-min Rain = 0
KEA1 151004Z 16005KT 19/13 A3018 RMK A01 T01930126  RH  065%=      5-min Rain = 0
KEA1 151005Z 17006KT 19/13 A3018 RMK A01 T01920126  RH  065%=      5-min Rain = 0
KEA1 151006Z 17006KT 19/13 A3018 RMK A01 T01910126  RH  066%=      5-min Rain = 0
KEA1 151007Z 17006KT 19/13 A3018 RMK A01 T01900126  RH  066%=      5-min Rain = 0
KEA1 151008Z 18007KT 19/13 A3018 RMK A01 T01890125  RH  066%=      5-min Rain = 0
KEA1 151009Z 18007KT 19/13 A3018 RMK A01 T01880125  RH  067%=      5-min Rain = 0
KEA1 151010Z 17007KT 19/13 A3018 RMK A01 T01880126  RH  067%=      5-min Rain = 0
KEA1 151011Z 16007KT 19/13 A3018 RMK A01 T01880126  RH  067%=      5-min Rain = 0
KEA1 151012Z 16006KT 19/13 A3018 RMK A01 T01880126  RH  067%=      5-min Rain = 0
KEA1 151013Z 17006KT 19/13 A3018 RMK A01 T01890127  RH  067%=      5-min Rain = 0
KEA1 151014Z 18006KT 19/13 A3018 RMK A01 T01890126  RH  067%=      5-min Rain = 0
KEA1 151015Z 19006KT 19/13 A3018 RMK A01 T01890126  RH  067%=      5-min Rain = 0
KEA1 151016Z 19006KT 19/13 A3018 RMK A01 T01880126  RH  067%=      5-min Rain = 0
KEA1 151017Z 19005KT 19/13 A3018 RMK A01 T01880126  RH  067%=      5-min Rain = 0
KEA1 151018Z 18004KT 19/13 A3018 RMK A01 T01880126  RH  067%=      5-min Rain = 0
KEA1 151019Z 18004KT 19/13 A3018 RMK A01 T01880126  RH  067%=      5-min Rain = 0
KEA1 151020Z 17005KT 19/13 A3018 RMK A01 T01890126  RH  067%=      5-min Rain = 0
KEA1 151021Z 18005KT 19/13 A3018 RMK A01 T01900127  RH  067%=      5-min Rain = 0
KEA1 151022Z 18005KT 19/13 A3018 RMK A01 T01920127  RH  066%=      5-min Rain = 0
KEA1 151023Z 18005KT 19/13 A3018 RMK A01 T01930127  RH  066%=      5-min Rain = 0
KEA1 151024Z 18006KT 19/13 A3018 RMK A01 T01940127  RH  065%=      5-min Rain = 0
KEA1 151025Z 18006KT 20/13 A3018 RMK A01 T01950127  RH  065%=      5-min Rain = 0
KEA1 151026Z 18005KT 20/13 A3018 RMK A01 T01970127  RH  064%=      5-min Rain = 0
KEA1 151027Z 18005KT 20/13 A3018 RMK A01 T01970127  RH  064%=      5-min Rain = 0
KEA1 151028Z 18006KT 20/13 A3018 RMK A01 T01960126  RH  064%=      5-min Rain = 0
KEA1 151029Z 18006KT 20/13 A3018 RMK A01 T01950126  RH  064%=      5-min Rain = 0
KEA1 151030Z 18006KT 20/13 A3018 RMK A01 T01950126  RH  064%=      5-min Rain = 0
KEA1 151031Z 19006KT 20/13 A3018 RMK A01 T01950126  RH  064%=      5-min Rain = 0
KEA1 151032Z 19005KT 19/13 A3018 RMK A01 T01940125  RH  064%=      5-min Rain = 0
KEA1 151033Z 19005KT 19/13 A3018 RMK A01 T01930125  RH  065%=      5-min Rain = 0
KEA1 151034Z 19005KT 19/13 A3018 RMK A01 T01930125  RH  065%=      5-min Rain = 0
KEA1 151035Z 20005KT 19/13 A3018 RMK A01 T01930125  RH  065%=      5-min Rain = 0
KEA1 151036Z 22004KT 19/13 A3018 RMK A01 T01940125  RH  064%=      5-min Rain = 0
KEA1 151037Z 26004KT 19/12 A3018 RMK A01 T01930124  RH  064%=      5-min Rain = 0
KEA1 151038Z 29007KT 19/12 A3018 RMK A01 T01900124  RH  066%=      5-min Rain = 0
KEA1 151039Z 29007KT 19/13 A3018 RMK A01 T01890126  RH  067%=      5-min Rain = 0
KEA1 151040Z 30007KT 19/13 A3018 RMK A01 T01890127  RH  067%=      5-min Rain = 0
KEA1 151041Z 30007KT 19/13 A3018 RMK A01 T01880128  RH  068%=      5-min Rain = 0
KEA1 151042Z 30006KT 19/13 A3018 RMK A01 T01880130  RH  069%=      5-min Rain = 0
KEA1 151043Z 29005KT 19/13 A3018 RMK A01 T01880131  RH  070%=      5-min Rain = 0
KEA1 151044Z 29005KT 19/13 A3018 RMK A01 T01880132  RH  070%=      5-min Rain = 0
KEA1 151045Z 29006KT 19/13 A3018 RMK A01 T01890133  RH  070%=      5-min Rain = 0
KEA1 151046Z 28005KT 19/13 A3018 RMK A01 T01900134  RH  070%=      5-min Rain = 0
KEA1 151047Z 28004KT 19/13 A3018 RMK A01 T01900133  RH  070%=      5-min Rain = 0
KEA1 151048Z 27004KT 19/13 A3018 RMK A01 T01900133  RH  069%=      5-min Rain = 0
KEA1 151049Z 26004KT 19/13 A3018 RMK A01 T01900133  RH  069%=      5-min Rain = 0
KEA1 151050Z 26004KT 19/13 A3018 RMK A01 T01900132  RH  069%=      5-min Rain = 0
KEA1 151051Z 27004KT 19/13 A3018 RMK A01 T01900131  RH  069%=      5-min Rain = 0
KEA1 151052Z 27004KT 19/13 A3018 RMK A01 T01900131  RH  069%=      5-min Rain = 0
KEA1 151053Z 28004KT 19/13 A3018 RMK A01 T01900131  RH  069%=      5-min Rain = 0
KEA1 151054Z 29004KT 19/13 A3018 RMK A01 T01890131  RH  069%=      5-min Rain = 0
KEA1 151055Z 29004KT 19/13 A3019 RMK A01 T01870130  RH  069%=      5-min Rain = 0
KEA1 151056Z 29005KT 19/13 A3019 RMK A01 T01860130  RH  070%=      5-min Rain = 0
KEA1 151057Z 29005KT 19/13 A3019 RMK A01 T01850130  RH  070%=      5-min Rain = 0
KEA1 151058Z 29005KT 18/13 A3019 RMK A01 T01840130  RH  071%=      5-min Rain = 0
KEA1 151059Z 29005KT 18/13 A3019 RMK A01 T01840130  RH  071%=      5-min Rain = 0
KEA1 151100Z 28006KT 18/13 A3019 RMK A01 T01840130  RH  071%=      5-min Rain = 0
KEA1 151101Z 28006KT 19/13 A3019 RMK A01 T01850132  RH  071%=      5-min Rain = 0
KEA1 151102Z 27006KT 19/13 A3019 RMK A01 T01860131  RH  071%=      5-min Rain = 0
KEA1 151103Z 27006KT 19/13 A3019 RMK A01 T01860131  RH  070%=      5-min Rain = 0
KEA1 151104Z 27007KT 19/13 A3019 RMK A01 T01860131  RH  070%=      5-min Rain = 0
KEA1 151105Z 27007KT 19/13 A3019 RMK A01 T01850131  RH  071%=      5-min Rain = 0
KEA1 151106Z 28008KT 19/13 A302 RMK A01 T01850131  RH  071%=      5-min Rain = 0
KEA1 151107Z 28008KT 19/13 A302 RMK A01 T01850132  RH  071%=      5-min Rain = 0
KEA1 151108Z 28008KT 18/13 A302 RMK A01 T01840132  RH  072%=      5-min Rain = 0
KEA1 151109Z 29010KT 18/13 A302 RMK A01 T01840133  RH  072%=      5-min Rain = 0
KEA1 151110Z 29010KT 19/14 A302 RMK A01 T01850135  RH  073%=      5-min Rain = 0
KEA1 151111Z 29009KT 19/14 A302 RMK A01 T01860136  RH  073%=      5-min Rain = 0
KEA1 151112Z 29008KT 19/14 A302 RMK A01 T01860136  RH  073%=      5-min Rain = 0
KEA1 151113Z 29008KT 19/14 A302 RMK A01 T01860136  RH  073%=      5-min Rain = 0
KEA1 151114Z 29007KT 19/14 A302 RMK A01 T01860137  RH  073%=      5-min Rain = 0
KEA1 151115Z 29007KT 19/14 A302 RMK A01 T01860137  RH  073%=      5-min Rain = 0
KEA1 151116Z 29006KT 19/14 A302 RMK A01 T01850137  RH  073%=      5-min Rain = 0
KEA1 151117Z 29005KT 19/14 A302 RMK A01 T01850137  RH  074%=      5-min Rain = 0
KEA1 151118Z 28005KT 18/14 A302 RMK A01 T01840136  RH  074%=      5-min Rain = 0
KEA1 151119Z 28005KT 18/14 A302 RMK A01 T01830136  RH  074%=      5-min Rain = 0
KEA1 151120Z 28005KT 18/14 A302 RMK A01 T01820136  RH  074%=      5-min Rain = 0
KEA1 151121Z 28005KT 18/14 A302 RMK A01 T01820136  RH  074%=      5-min Rain = 0
KEA1 151122Z 28005KT 18/14 A302 RMK A01 T01820137  RH  075%=      5-min Rain = 0
KEA1 151123Z 29005KT 18/14 A302 RMK A01 T01820137  RH  075%=      5-min Rain = 0
KEA1 151124Z 29005KT 18/14 A302 RMK A01 T01820137  RH  075%=      5-min Rain = 0
KEA1 151125Z 30005KT 18/14 A302 RMK A01 T01810137  RH  075%=      5-min Rain = 0
KEA1 151126Z 30004KT 18/14 A302 RMK A01 T01820138  RH  076%=      5-min Rain = 0
KEA1 151127Z 30004KT 18/14 A302 RMK A01 T01810138  RH  076%=      5-min Rain = 0
KEA1 151128Z 30004KT 18/14 A302 RMK A01 T01810138  RH  076%=      5-min Rain = 0
KEA1 151129Z 30004KT 18/14 A302 RMK A01 T01820139  RH  076%=      5-min Rain = 0
KEA1 151130Z 30003KT 18/14 A302 RMK A01 T01820140  RH  077%=      5-min Rain = 0
KEA1 151131Z 30004KT 18/14 A302 RMK A01 T01820140  RH  077%=      5-min Rain = 0
KEA1 151132Z 29004KT 18/14 A302 RMK A01 T01810141  RH  077%=      5-min Rain = 0
KEA1 151133Z 29005KT 18/14 A302 RMK A01 T01820141  RH  077%=      5-min Rain = 0
KEA1 151134Z 29005KT 18/14 A302 RMK A01 T01820141  RH  077%=      5-min Rain = 0
KEA1 151135Z 29005KT 18/14 A302 RMK A01 T01820141  RH  077%=      5-min Rain = 0
KEA1 151136Z 30005KT 18/14 A302 RMK A01 T01810141  RH  077%=      5-min Rain = 0
KEA1 151137Z 30005KT 18/14 A302 RMK A01 T01810141  RH  078%=      5-min Rain = 0
KEA1 151138Z 30005KT 18/14 A302 RMK A01 T01810141  RH  078%=      5-min Rain = 0
KEA1 151139Z 31005KT 18/14 A302 RMK A01 T01810142  RH  078%=      5-min Rain = 0
KEA1 151140Z 31005KT 18/14 A3021 RMK A01 T01810141  RH  077%=      5-min Rain = 0
KEA1 151141Z 32005KT 18/14 A3021 RMK A01 T01800140  RH  078%=      5-min Rain = 0
KEA1 151142Z 33005KT 18/14 A3021 RMK A01 T01800141  RH  078%=      5-min Rain = 0
KEA1 151143Z 34005KT 18/14 A3021 RMK A01 T01790140  RH  078%=      5-min Rain = 0
KEA1 151144Z 34005KT 18/14 A3021 RMK A01 T01780139  RH  078%=      5-min Rain = 0
KEA1 151145Z 34005KT 18/14 A3021 RMK A01 T01770138  RH  078%=      5-min Rain = 0
KEA1 151146Z 33006KT 18/14 A3021 RMK A01 T01760138  RH  078%=      5-min Rain = 0
KEA1 151147Z 33006KT 18/14 A3021 RMK A01 T01750138  RH  079%=      5-min Rain = 0
KEA1 151148Z 33007KT 18/14 A3021 RMK A01 T01750139  RH  079%=      5-min Rain = 0
KEA1 151149Z 34007KT 18/14 A3022 RMK A01 T01750139  RH  080%=      5-min Rain = 0
KEA1 151150Z 34006KT 17/14 A3022 RMK A01 T01740139  RH  080%=      5-min Rain = 0
KEA1 151151Z 33006KT 17/14 A3022 RMK A01 T01730139  RH  080%=      5-min Rain = 0
KEA1 151152Z 33006KT 17/14 A3022 RMK A01 T01730139  RH  080%=      5-min Rain = 0
KEA1 151153Z 33006KT 17/14 A3022 RMK A01 T01730139  RH  081%=      5-min Rain = 0
KEA1 151154Z 32006KT 17/14 A3022 RMK A01 T01720139  RH  081%=      5-min Rain = 0
KEA1 151155Z 32006KT 17/14 A3022 RMK A01 T01720140  RH  081%=      5-min Rain = 0
KEA1 151156Z 32006KT 17/14 A3022 RMK A01 T01720140  RH  081%=      5-min Rain = 0
KEA1 151157Z 31005KT 17/14 A3022 RMK A01 T01710140  RH  082%=      5-min Rain = 0
KEA1 151158Z 31005KT 17/14 A3022 RMK A01 T01710140  RH  082%=      5-min Rain = 0
KEA1 151159Z 30004KT 17/14 A3022 RMK A01 T01710140  RH  082%=      5-min Rain = 0
KEA1 151200Z 30004KT 17/14 A3022 RMK A01 T01710140  RH  082%=      5-min Rain = 0
KEA1 151201Z 30004KT 17/14 A3022 RMK A01 T01710140  RH  082%=      5-min Rain = 0
KEA1 151202Z 31004KT 17/14 A3022 RMK A01 T01700140  RH  082%=      5-min Rain = 0
KEA1 151203Z 32005KT 17/14 A3022 RMK A01 T01710141  RH  083%=      5-min Rain = 0
KEA1 151204Z 32005KT 17/14 A3022 RMK A01 T01710141  RH  083%=      5-min Rain = 0
KEA1 151205Z 32005KT 17/14 A3022 RMK A01 T01710142  RH  083%=      5-min Rain = 0
KEA1 151206Z 32005KT 17/14 A3022 RMK A01 T01720142  RH  083%=      5-min Rain = 0
KEA1 151207Z 32005KT 17/14 A3022 RMK A01 T01720143  RH  083%=      5-min Rain = 0
KEA1 151208Z 32005KT 17/14 A3022 RMK A01 T01730143  RH  083%=      5-min Rain = 0
KEA1 151209Z 32005KT 17/14 A3022 RMK A01 T01730142  RH  082%=      5-min Rain = 0
KEA1 151210Z 32005KT 17/14 A3022 RMK A01 T01730143  RH  082%=      5-min Rain = 0
KEA1 151211Z 32005KT 17/14 A3022 RMK A01 T01720142  RH  083%=      5-min Rain = 0
KEA1 151212Z 32005KT 17/14 A3022 RMK A01 T01720143  RH  083%=      5-min Rain = 0
KEA1 151213Z 31005KT 17/14 A3022 RMK A01 T01720144  RH  083%=      5-min Rain = 0
KEA1 151214Z 31005KT 17/14 A3022 RMK A01 T01730144  RH  083%=      5-min Rain = 0
KEA1 151215Z 31005KT 17/14 A3022 RMK A01 T01730144  RH  083%=      5-min Rain = 0
KEA1 151216Z 31005KT 17/14 A3022 RMK A01 T01730144  RH  083%=      5-min Rain = 0
KEA1 151217Z 31004KT 17/14 A3022 RMK A01 T01730143  RH  083%=      5-min Rain = 0
KEA1 151218Z 31004KT 17/14 A3022 RMK A01 T01720143  RH  083%=      5-min Rain = 0
KEA1 151219Z 31005KT 17/14 A3022 RMK A01 T01720143  RH  083%=      5-min Rain = 0
KEA1 151220Z 30004KT 17/14 A3022 RMK A01 T01720143  RH  083%=      5-min Rain = 0
KEA1 151221Z 30004KT 17/14 A3022 RMK A01 T01710142  RH  083%=      5-min Rain = 0
KEA1 151222Z 30004KT 17/14 A3022 RMK A01 T01710142  RH  083%=      5-min Rain = 0
KEA1 151223Z 30003KT 17/14 A3022 RMK A01 T01710142  RH  083%=      5-min Rain = 0
KEA1 151224Z 29003KT 17/14 A3022 RMK A01 T01710142  RH  083%=      5-min Rain = 0
KEA1 151225Z 27003KT 17/14 A3022 RMK A01 T01710143  RH  083%=      5-min Rain = 0
KEA1 151226Z 26002KT 17/14 A3022 RMK A01 T01710144  RH  084%=      5-min Rain = 0
KEA1 151227Z 27002KT 17/15 A3022 RMK A01 T01730145  RH  084%=      5-min Rain = 0
KEA1 151228Z 28003KT 17/15 A3022 RMK A01 T01740145  RH  083%=      5-min Rain = 0
KEA1 151229Z 30003KT 18/15 A3022 RMK A01 T01760146  RH  083%=      5-min Rain = 0
KEA1 151230Z 30004KT 18/15 A3022 RMK A01 T01770146  RH  082%=      5-min Rain = 0
KEA1 151231Z 29004KT 18/15 A3022 RMK A01 T01770145  RH  082%=      5-min Rain = 0
KEA1 151232Z 30005KT 18/15 A3022 RMK A01 T01780146  RH  081%=      5-min Rain = 0
KEA1 151233Z 31005KT 18/15 A3022 RMK A01 T01780145  RH  081%=      5-min Rain = 0
KEA1 151234Z 32006KT 18/15 A3022 RMK A01 T01790145  RH  081%=      5-min Rain = 0
KEA1 151235Z 32007KT 18/15 A3022 RMK A01 T01790145  RH  080%=      5-min Rain = 0
KEA1 151236Z 32007KT 18/15 A3022 RMK A01 T01800145  RH  080%=      5-min Rain = 0
KEA1 151237Z 32007KT 18/15 A3022 RMK A01 T01820145  RH  079%=      5-min Rain = 0
KEA1 151238Z 32006KT 18/15 A3022 RMK A01 T01830145  RH  079%=      5-min Rain = 0
KEA1 151239Z 32005KT 19/15 A3022 RMK A01 T01850145  RH  078%=      5-min Rain = 0
KEA1 151240Z 33005KT 19/15 A3022 RMK A01 T01870145  RH  077%=      5-min Rain = 0
KEA1 151241Z 33003KT 19/15 A3022 RMK A01 T01880145  RH  076%=      5-min Rain = 0
KEA1 151242Z 30002KT 19/15 A3022 RMK A01 T01890145  RH  076%=      5-min Rain = 0
KEA1 151243Z 25002KT 19/15 A3022 RMK A01 T01890145  RH  076%=      5-min Rain = 0
KEA1 151244Z 25003KT 19/15 A3023 RMK A01 T01870145  RH  076%=      5-min Rain = 0
KEA1 151245Z 26003KT 19/15 A3023 RMK A01 T01870145  RH  077%=      5-min Rain = 0
KEA1 151246Z 27003KT 19/15 A3023 RMK A01 T01870146  RH  077%=      5-min Rain = 0
KEA1 151247Z 30003KT 19/15 A3023 RMK A01 T01870146  RH  077%=      5-min Rain = 0
KEA1 151248Z 31004KT 19/15 A3023 RMK A01 T01870146  RH  077%=      5-min Rain = 0
KEA1 151249Z 33004KT 19/15 A3023 RMK A01 T01880145  RH  076%=      5-min Rain = 0
KEA1 151250Z 34005KT 19/15 A3022 RMK A01 T01890146  RH  076%=      5-min Rain = 0
KEA1 151251Z 36005KT 19/15 A3022 RMK A01 T01900146  RH  076%=      5-min Rain = 0
KEA1 151252Z 36005KT 19/15 A3022 RMK A01 T01910146  RH  075%=      5-min Rain = 0
KEA1 151253Z 36006KT 19/15 A3022 RMK A01 T01930145  RH  074%=      5-min Rain = 0
KEA1 151254Z 36006KT 20/15 A3022 RMK A01 T01950145  RH  073%=      5-min Rain = 0
KEA1 151255Z 35006KT 20/15 A3023 RMK A01 T01960145  RH  072%=      5-min Rain = 0
KEA1 151256Z 35006KT 20/15 A3023 RMK A01 T01970145  RH  072%=      5-min Rain = 0
KEA1 151257Z 35005KT 20/15 A3023 RMK A01 T01980145  RH  071%=      5-min Rain = 0
KEA1 151258Z 00004KT 20/15 A3023 RMK A01 T01990145  RH  071%=      5-min Rain = 0
KEA1 151259Z 00004KT 20/15 A3023 RMK A01 T01990146  RH  071%=      5-min Rain = 0
KEA1 151300Z 01003KT 20/15 A3023 RMK A01 T02000146  RH  071%=      5-min Rain = 0
KEA1 151301Z 00002KT 20/15 A3023 RMK A01 T02010145  RH  070%=      5-min Rain = 0
KEA1 151302Z 02002KT 20/15 A3023 RMK A01 T02020146  RH  070%=      5-min Rain = 0
KEA1 151303Z 03001KT 20/15 A3023 RMK A01 T02030146  RH  070%=      5-min Rain = 0
KEA1 151304Z 34000KT 20/15 A3023 RMK A01 T02040146  RH  069%=      5-min Rain = 0
KEA1 151305Z 31001KT 21/15 A3023 RMK A01 T02050146  RH  069%=      5-min Rain = 0
KEA1 151306Z 29001KT 21/15 A3023 RMK A01 T02060146  RH  069%=      5-min Rain = 0
KEA1 151307Z 32001KT 21/15 A3023 RMK A01 T02060145  RH  068%=      5-min Rain = 0
KEA1 151308Z 33002KT 21/15 A3023 RMK A01 T02070145  RH  068%=      5-min Rain = 0
KEA1 151309Z 00002KT 21/14 A3023 RMK A01 T02070144  RH  067%=      5-min Rain = 0
KEA1 151310Z 36003KT 21/14 A3023 RMK A01 T02080144  RH  067%=      5-min Rain = 0
KEA1 151311Z 00003KT 21/14 A3023 RMK A01 T02090144  RH  066%=      5-min Rain = 0
KEA1 151312Z 01003KT 21/15 A3023 RMK A01 T02090145  RH  066%=      5-min Rain = 0
KEA1 151313Z 02003KT 21/15 A3023 RMK A01 T02100145  RH  066%=      5-min Rain = 0
KEA1 151314Z 01004KT 21/15 A3023 RMK A01 T02100146  RH  067%=      5-min Rain = 0
KEA1 151315Z 01003KT 21/15 A3023 RMK A01 T02110146  RH  066%=      5-min Rain = 0
KEA1 151316Z 01006KT 21/15 A3023 RMK A01 T02110145  RH  066%=      5-min Rain = 0
KEA1 151317Z 00006KT 21/14 A3023 RMK A01 T02120143  RH  065%=      5-min Rain = 0
KEA1 151318Z 00007KT 21/14 A3023 RMK A01 T02140142  RH  064%=      5-min Rain = 0
KEA1 151319Z 00005KT 22/14 A3023 RMK A01 T02150143  RH  064%=      5-min Rain = 0
KEA1 151320Z 01006KT 22/14 A3023 RMK A01 T02150143  RH  064%=      5-min Rain = 0
KEA1 151321Z 00006KT 22/15 A3023 RMK A01 T02160145  RH  064%=      5-min Rain = 0
KEA1 151322Z 00005KT 22/14 A3023 RMK A01 T02160144  RH  063%=      5-min Rain = 0
KEA1 151323Z 01004KT 22/14 A3023 RMK A01 T02170144  RH  063%=      5-min Rain = 0
KEA1 151324Z 01005KT 22/15 A3023 RMK A01 T02190145  RH  063%=      5-min Rain = 0
KEA1 151325Z 01004KT 22/15 A3023 RMK A01 T02200146  RH  063%=      5-min Rain = 0
KEA1 151326Z 00005KT 22/15 A3023 RMK A01 T02210145  RH  062%=      5-min Rain = 0
KEA1 151327Z 01004KT 22/15 A3023 RMK A01 T02230145  RH  061%=      5-min Rain = 0
KEA1 151328Z 01004KT 23/15 A3023 RMK A01 T02250145  RH  060%=      5-min Rain = 0
KEA1 151329Z 01005KT 23/14 A3023 RMK A01 T02270144  RH  060%=      5-min Rain = 0
KEA1 151330Z 01005KT 23/15 A3024 RMK A01 T02280145  RH  059%=      5-min Rain = 0
KEA1 151331Z 01005KT 23/15 A3024 RMK A01 T02280146  RH  060%=      5-min Rain = 0
KEA1 151332Z 01006KT 23/15 A3024 RMK A01 T02290146  RH  059%=      5-min Rain = 0
KEA1 151333Z 01006KT 23/14 A3024 RMK A01 T02300144  RH  058%=      5-min Rain = 0
KEA1 151334Z 01008KT 23/14 A3024 RMK A01 T02310144  RH  058%=      5-min Rain = 0
KEA1 151335Z 02007KT 23/14 A3024 RMK A01 T02320143  RH  057%=      5-min Rain = 0
KEA1 151336Z 01007KT 23/14 A3024 RMK A01 T02310144  RH  058%=      5-min Rain = 0
KEA1 151337Z 01008KT 23/14 A3024 RMK A01 T02310144  RH  058%=      5-min Rain = 0
KEA1 151338Z 01008KT 23/14 A3024 RMK A01 T02310144  RH  058%=      5-min Rain = 0
KEA1 151339Z 01007KT 23/15 A3024 RMK A01 T02310145  RH  058%=      5-min Rain = 0
KEA1 151340Z 02006KT 23/15 A3024 RMK A01 T02310145  RH  058%=      5-min Rain = 0
KEA1 151341Z 03006KT 23/15 A3023 RMK A01 T02330146  RH  058%=      5-min Rain = 0
KEA1 151342Z 02007KT 23/14 A3023 RMK A01 T02330144  RH  057%=      5-min Rain = 0
KEA1 151343Z 02007KT 23/14 A3023 RMK A01 T02340144  RH  057%=      5-min Rain = 0
KEA1 151344Z 03006KT 24/14 A3023 RMK A01 T02350144  RH  057%=      5-min Rain = 0
KEA1 151345Z 03006KT 24/15 A3023 RMK A01 T02350145  RH  057%=      5-min Rain = 0
KEA1 151346Z 03006KT 24/15 A3023 RMK A01 T02360145  RH  057%=      5-min Rain = 0
KEA1 151347Z 04004KT 24/15 A3023 RMK A01 T02360146  RH  057%=      5-min Rain = 0
KEA1 151348Z 03004KT 24/15 A3023 RMK A01 T02380147  RH  057%=      5-min Rain = 0
KEA1 151349Z 04005KT 24/15 A3023 RMK A01 T02400145  RH  055%=      5-min Rain = 0
KEA1 151350Z 03005KT 24/15 A3023 RMK A01 T02390145  RH  056%=      5-min Rain = 0
KEA1 151351Z 03004KT 24/15 A3023 RMK A01 T02390146  RH  056%=      5-min Rain = 0
KEA1 151352Z 03005KT 24/14 A3023 RMK A01 T02410144  RH  054%=      5-min Rain = 0
KEA1 151353Z 03004KT 24/14 A3023 RMK A01 T02420144  RH  054%=      5-min Rain = 0
KEA1 151354Z 02004KT 24/14 A3023 RMK A01 T02430143  RH  054%=      5-min Rain = 0
KEA1 151355Z 04004KT 24/14 A3023 RMK A01 T02440144  RH  054%=      5-min Rain = 0
KEA1 151356Z 03004KT 25/14 A3023 RMK A01 T02460143  RH  053%=      5-min Rain = 0
KEA1 151357Z 03004KT 25/14 A3023 RMK A01 T02470144  RH  053%=      5-min Rain = 0
KEA1 151358Z 03004KT 25/14 A3023 RMK A01 T02480143  RH  052%=      5-min Rain = 0
KEA1 151359Z 02005KT 25/14 A3023 RMK A01 T02490139  RH  051%=      5-min Rain = 0
KEA1 151400Z 02005KT 25/14 A3023 RMK A01 T02480139  RH  051%=      5-min Rain = 0
KEA1 151401Z 03004KT 25/14 A3023 RMK A01 T02480138  RH  050%=      5-min Rain = 0
KEA1 151402Z 03004KT 25/14 A3023 RMK A01 T02490140  RH  051%=      5-min Rain = 0
KEA1 151403Z 06004KT 25/14 A3023 RMK A01 T02500142  RH  051%=      5-min Rain = 0
KEA1 151404Z 06003KT 25/14 A3023 RMK A01 T02520141  RH  050%=      5-min Rain = 0
KEA1 151405Z 06006KT 25/14 A3023 RMK A01 T02530142  RH  050%=      5-min Rain = 0
KEA1 151406Z 04005KT 25/14 A3023 RMK A01 T02530140  RH  049%=      5-min Rain = 0
KEA1 151407Z 07004KT 25/14 A3023 RMK A01 T02530141  RH  050%=      5-min Rain = 0
KEA1 151408Z 05004KT 25/14 A3023 RMK A01 T02540142  RH  050%=      5-min Rain = 0
KEA1 151409Z 06005KT 26/14 A3023 RMK A01 T02550142  RH  050%=      5-min Rain = 0
KEA1 151410Z 05006KT 26/14 A3023 RMK A01 T02550139  RH  049%=      5-min Rain = 0
KEA1 151411Z 06005KT 25/14 A3023 RMK A01 T02530138  RH  049%=      5-min Rain = 0
KEA1 151412Z 06005KT 25/14 A3023 RMK A01 T02530139  RH  049%=      5-min Rain = 0
KEA1 151413Z 04005KT 25/14 A3023 RMK A01 T02520136  RH  048%=      5-min Rain = 0
KEA1 151414Z 05004KT 25/14 A3023 RMK A01 T02530138  RH  049%=      5-min Rain = 0
KEA1 151415Z 07005KT 26/14 A3023 RMK A01 T02560138  RH  048%=      5-min Rain = 0
KEA1 151416Z 05005KT 26/14 A3023 RMK A01 T02570139  RH  048%=      5-min Rain = 0
KEA1 151417Z 04006KT 26/14 A3023 RMK A01 T02580137  RH  047%=      5-min Rain = 0
KEA1 151418Z 03005KT 26/13 A3023 RMK A01 T02580133  RH  046%=      5-min Rain = 0
KEA1 151419Z 04005KT 26/13 A3023 RMK A01 T02590133  RH  046%=      5-min Rain = 0
KEA1 151420Z 06006KT 26/14 A3023 RMK A01 T02610137  RH  046%=      5-min Rain = 0
KEA1 151421Z 07006KT 26/14 A3023 RMK A01 T02610137  RH  046%=      5-min Rain = 0
KEA1 151422Z 04005KT 26/14 A3023 RMK A01 T02610139  RH  047%=      5-min Rain = 0
KEA1 151423Z 03005KT 26/14 A3023 RMK A01 T02640138  RH  046%=      5-min Rain = 0
KEA1 151424Z 06006KT 26/14 A3023 RMK A01 T02640137  RH  045%=      5-min Rain = 0
KEA1 151425Z 07006KT 27/14 A3023 RMK A01 T02650136  RH  045%=      5-min Rain = 0
KEA1 151426Z 04005KT 27/14 A3023 RMK A01 T02660138  RH  045%=      5-min Rain = 0
KEA1 151427Z 03005KT 27/14 A3023 RMK A01 T02670135  RH  044%=      5-min Rain = 0
KEA1 151428Z 03004KT 27/13 A3023 RMK A01 T02670134  RH  044%=      5-min Rain = 0
KEA1 151429Z 04005KT 27/14 A3023 RMK A01 T02670136  RH  044%=      5-min Rain = 0
KEA1 151430Z 03004KT 27/14 A3023 RMK A01 T02680137  RH  044%=      5-min Rain = 0
KEA1 151431Z 08004KT 27/14 A3023 RMK A01 T02690137  RH  044%=      5-min Rain = 0
KEA1 151432Z 08003KT 27/14 A3023 RMK A01 T02710137  RH  044%=      5-min Rain = 0
KEA1 151433Z 07005KT 27/14 A3023 RMK A01 T02710135  RH  043%=      5-min Rain = 0
KEA1 151434Z 08003KT 27/14 A3023 RMK A01 T02700136  RH  044%=      5-min Rain = 0
KEA1 151435Z 08002KT 27/14 A3023 RMK A01 T02690137  RH  044%=      5-min Rain = 0
KEA1 151436Z 07003KT 27/14 A3023 RMK A01 T02710139  RH  044%=      5-min Rain = 0
KEA1 151437Z 10003KT 27/14 A3022 RMK A01 T02740140  RH  044%=      5-min Rain = 0
KEA1 151438Z 06004KT 28/14 A3022 RMK A01 T02750142  RH  044%=      5-min Rain = 0
KEA1 151439Z 06004KT 28/14 A3022 RMK A01 T02760143  RH  044%=      5-min Rain = 0
KEA1 151440Z 05005KT 28/14 A3022 RMK A01 T02760140  RH  043%=      5-min Rain = 0
KEA1 151441Z 07004KT 27/14 A3022 RMK A01 T02740140  RH  044%=      5-min Rain = 0
KEA1 151442Z 06007KT 27/14 A3022 RMK A01 T02730141  RH  044%=      5-min Rain = 0
KEA1 151443Z 08005KT 27/14 A3023 RMK A01 T02740142  RH  044%=      5-min Rain = 0
KEA1 151444Z 09004KT 27/14 A3023 RMK A01 T02740144  RH  045%=      5-min Rain = 0
KEA1 151445Z 10003KT 27/15 A3023 RMK A01 T02740145  RH  045%=      5-min Rain = 0
KEA1 151446Z 10002KT 28/14 A3023 RMK A01 T02750144  RH  045%=      5-min Rain = 0
KEA1 151447Z 09002KT 28/14 A3023 RMK A01 T02750143  RH  044%=      5-min Rain = 0
KEA1 151448Z 06005KT 28/15 A3023 RMK A01 T02750145  RH  045%=      5-min Rain = 0
KEA1 151449Z 06005KT 28/15 A3023 RMK A01 T02760146  RH  045%=      5-min Rain = 0
KEA1 151450Z 06003KT 28/15 A3023 RMK A01 T02750148  RH  046%=      5-min Rain = 0
KEA1 151451Z 07004KT 28/15 A3023 RMK A01 T02750146  RH  045%=      5-min Rain = 0
KEA1 151452Z 06003KT 27/14 A3023 RMK A01 T02740144  RH  045%=      5-min Rain = 0
KEA1 151453Z 05003KT 27/15 A3023 RMK A01 T02730145  RH  046%=      5-min Rain = 0
KEA1 151454Z 07004KT 28/15 A3023 RMK A01 T02750147  RH  046%=      5-min Rain = 0
KEA1 151455Z 07006KT 28/15 A3022 RMK A01 T02760149  RH  046%=      5-min Rain = 0
KEA1 151456Z 09003KT 28/15 A3022 RMK A01 T02750148  RH  046%=      5-min Rain = 0
KEA1 151457Z 11005KT 27/15 A3022 RMK A01 T02740149  RH  046%=      5-min Rain = 0
KEA1 151458Z 11005KT 28/15 A3022 RMK A01 T02760152  RH  047%=      5-min Rain = 0
KEA1 151459Z 11004KT 28/15 A3022 RMK A01 T02790154  RH  047%=      5-min Rain = 0
KEA1 151500Z 12003KT 28/15 A3022 RMK A01 T02790152  RH  046%=      5-min Rain = 0
KEA1 151501Z 10003KT 28/15 A3022 RMK A01 T02770153  RH  047%=      5-min Rain = 0
KEA1 151502Z 09004KT 28/15 A3022 RMK A01 T02800153  RH  046%=      5-min Rain = 0
KEA1 151503Z 08003KT 28/15 A3022 RMK A01 T02810153  RH  046%=      5-min Rain = 0
KEA1 151504Z 12007KT 28/15 A3022 RMK A01 T02830153  RH  045%=      5-min Rain = 0
KEA1 151505Z 13006KT 28/15 A3022 RMK A01 T02830152  RH  045%=      5-min Rain = 0
KEA1 151506Z 13003KT 28/15 A3022 RMK A01 T02790154  RH  047%=      5-min Rain = 0
KEA1 151507Z 12001KT 28/15 A3022 RMK A01 T02780153  RH  047%=      5-min Rain = 0
KEA1 151508Z 08005KT 28/15 A3022 RMK A01 T02780152  RH  046%=      5-min Rain = 0
KEA1 151509Z 07004KT 28/15 A3022 RMK A01 T02790153  RH  046%=      5-min Rain = 0
KEA1 151510Z 06004KT 28/15 A3022 RMK A01 T02800152  RH  046%=      5-min Rain = 0
KEA1 151511Z 08003KT 28/15 A3022 RMK A01 T02800153  RH  046%=      5-min Rain = 0
KEA1 151512Z 06001KT 28/15 A3022 RMK A01 T02800151  RH  045%=      5-min Rain = 0
KEA1 151513Z 05004KT 28/15 A3022 RMK A01 T02810154  RH  046%=      5-min Rain = 0
KEA1 151514Z 04007KT 28/16 A3022 RMK A01 T02820155  RH  046%=      5-min Rain = 0
KEA1 151515Z 07007KT 28/16 A3022 RMK A01 T02820156  RH  046%=      5-min Rain = 0
KEA1 151516Z 08007KT 28/16 A3022 RMK A01 T02830159  RH  047%=      5-min Rain = 0
KEA1 151517Z 07006KT 28/16 A3023 RMK A01 T02830159  RH  047%=      5-min Rain = 0
KEA1 151518Z 06004KT 28/16 A3023 RMK A01 T02840159  RH  047%=      5-min Rain = 0
KEA1 151519Z 04004KT 28/16 A3022 RMK A01 T02840159  RH  047%=      5-min Rain = 0
KEA1 151520Z 04004KT 28/16 A3022 RMK A01 T02840158  RH  046%=      5-min Rain = 0
KEA1 151521Z 04004KT 29/16 A3022 RMK A01 T02850158  RH  046%=      5-min Rain = 0
KEA1 151522Z 07004KT 29/16 A3023 RMK A01 T02860158  RH  046%=      5-min Rain = 0
KEA1 151523Z 07005KT 29/16 A3023 RMK A01 T02860161  RH  047%=      5-min Rain = 0
KEA1 151524Z 05007KT 29/16 A3023 RMK A01 T02860160  RH  046%=      5-min Rain = 0
KEA1 151525Z 04003KT 28/16 A3023 RMK A01 T02840159  RH  047%=      5-min Rain = 0
KEA1 151526Z 04008KT 28/16 A3023 RMK A01 T02830160  RH  047%=      5-min Rain = 0
KEA1 151527Z 04009KT 28/16 A3022 RMK A01 T02840160  RH  047%=      5-min Rain = 0
KEA1 151528Z 06007KT 28/16 A3022 RMK A01 T02820161  RH  048%=      5-min Rain = 0
KEA1 151529Z 07006KT 28/16 A3023 RMK A01 T02820162  RH  048%=      5-min Rain = 0
KEA1 151530Z 07005KT 28/16 A3022 RMK A01 T02810162  RH  048%=      5-min Rain = 0
KEA1 151531Z 03007KT 28/16 A3022 RMK A01 T02820162  RH  048%=      5-min Rain = 0
KEA1 151532Z 04006KT 28/16 A3022 RMK A01 T02840163  RH  048%=      5-min Rain = 0
KEA1 151533Z 04005KT 29/16 A3022 RMK A01 T02870164  RH  047%=      5-min Rain = 0
KEA1 151534Z 07007KT 29/17 A3022 RMK A01 T02880165  RH  047%=      5-min Rain = 0
KEA1 151535Z 08007KT 29/16 A3022 RMK A01 T02880164  RH  047%=      5-min Rain = 0
KEA1 151536Z 09006KT 29/17 A3022 RMK A01 T02880165  RH  047%=      5-min Rain = 0
KEA1 151537Z 10005KT 29/16 A3022 RMK A01 T02870164  RH  047%=      5-min Rain = 0
KEA1 151538Z 09004KT 29/16 A3022 RMK A01 T02860164  RH  048%=      5-min Rain = 0
KEA1 151539Z 11005KT 29/16 A3022 RMK A01 T02860164  RH  047%=      5-min Rain = 0
KEA1 151540Z 13005KT 29/16 A3022 RMK A01 T02860164  RH  048%=      5-min Rain = 0
KEA1 151541Z 11003KT 29/16 A3022 RMK A01 T02850164  RH  048%=      5-min Rain = 0
KEA1 151542Z 09004KT 29/17 A3022 RMK A01 T02850166  RH  048%=      5-min Rain = 0
KEA1 151543Z 07004KT 29/17 A3022 RMK A01 T02860166  RH  048%=      5-min Rain = 0
KEA1 151544Z 06003KT 29/17 A3022 RMK A01 T02850166  RH  048%=      5-min Rain = 0
KEA1 151545Z 07003KT 29/17 A3022 RMK A01 T02860166  RH  048%=      5-min Rain = 0
KEA1 151546Z 11003KT 29/17 A3022 RMK A01 T02870167  RH  048%=      5-min Rain = 0
KEA1 151547Z 10005KT 29/17 A3022 RMK A01 T02910169  RH  048%=      5-min Rain = 0
KEA1 151548Z 11005KT 29/17 A3022 RMK A01 T02940169  RH  047%=      5-min Rain = 0
KEA1 151549Z 12006KT 29/17 A3022 RMK A01 T02940169  RH  047%=      5-min Rain = 0
KEA1 151550Z 12007KT 29/17 A3022 RMK A01 T02940169  RH  047%=      5-min Rain = 0
KEA1 151551Z 11006KT 29/17 A3022 RMK A01 T02930168  RH  047%=      5-min Rain = 0
KEA1 151552Z 10005KT 29/17 A3022 RMK A01 T02930169  RH  047%=      5-min Rain = 0
KEA1 151553Z 11003KT 29/17 A3022 RMK A01 T02930169  RH  047%=      5-min Rain = 0
KEA1 151554Z 04002KT 29/17 A3022 RMK A01 T02930169  RH  047%=      5-min Rain = 0
KEA1 151555Z 02002KT 29/17 A3022 RMK A01 T02940170  RH  047%=      5-min Rain = 0
KEA1 151556Z 07002KT 30/17 A3022 RMK A01 T02950169  RH  047%=      5-min Rain = 0
KEA1 151557Z 07007KT 30/17 A3022 RMK A01 T02950171  RH  047%=      5-min Rain = 0
KEA1 151558Z 06008KT 30/17 A3022 RMK A01 T02960172  RH  047%=      5-min Rain = 0
KEA1 151559Z 10009KT 30/17 A3022 RMK A01 T02960174  RH  048%=      5-min Rain = 0
KEA1 151600Z 14011KT 30/17 A3022 RMK A01 T02980172  RH  047%=      5-min Rain = 0
KEA1 151601Z 13006KT 30/17 A3022 RMK A01 T02990172  RH  047%=      5-min Rain = 0
KEA1 151602Z 12007KT 30/17 A3022 RMK A01 T02980173  RH  047%=      5-min Rain = 0
KEA1 151603Z 14004KT 30/17 A3022 RMK A01 T02960172  RH  047%=      5-min Rain = 0
KEA1 151604Z 17008KT 30/17 A3022 RMK A01 T02970173  RH  047%=      5-min Rain = 0
KEA1 151605Z 16009KT 30/17 A3022 RMK A01 T03010172  RH  046%=      5-min Rain = 0
KEA1 151606Z 16003KT 30/17 A3022 RMK A01 T02990172  RH  046%=      5-min Rain = 0
KEA1 151607Z 17008KT 30/17 A3022 RMK A01 T02970173  RH  047%=      5-min Rain = 0
KEA1 151608Z 17008KT 30/17 A3022 RMK A01 T02990173  RH  047%=      5-min Rain = 0
KEA1 151609Z 16010KT 30/17 A3021 RMK A01 T03010173  RH  046%=      5-min Rain = 0
KEA1 151610Z 13008KT 30/17 A3021 RMK A01 T03020174  RH  046%=      5-min Rain = 0
KEA1 151611Z 12005KT 30/17 A3022 RMK A01 T03010173  RH  046%=      5-min Rain = 0
KEA1 151612Z 15004KT 30/17 A3022 RMK A01 T02990173  RH  047%=      5-min Rain = 0
KEA1 151613Z 18004KT 30/17 A3021 RMK A01 T02980173  RH  047%=      5-min Rain = 0
KEA1 151614Z 18008KT 30/17 A3021 RMK A01 T02970173  RH  047%=      5-min Rain = 0
KEA1 151615Z 16012KT 30/17 A3021 RMK A01 T02990171  RH  046%=      5-min Rain = 0
KEA1 151616Z 16011KT 30/17 A3021 RMK A01 T02990172  RH  046%=      5-min Rain = 0
KEA1 151617Z 15009KT 30/17 A3021 RMK A01 T02990170  RH  046%=      5-min Rain = 0
KEA1 151618Z 16006KT 30/17 A3021 RMK A01 T02980171  RH  046%=      5-min Rain = 0
KEA1 151619Z 16006KT 30/17 A3021 RMK A01 T02980170  RH  046%=      5-min Rain = 0
KEA1 151620Z 17008KT 30/17 A3021 RMK A01 T02980170  RH  046%=      5-min Rain = 0
KEA1 151621Z 19008KT 30/17 A3021 RMK A01 T02980171  RH  047%=      5-min Rain = 0
KEA1 151622Z 16008KT 30/17 A3021 RMK A01 T03020172  RH  045%=      5-min Rain = 0
KEA1 151623Z 16008KT 30/17 A3021 RMK A01 T03020170  RH  045%=      5-min Rain = 0
KEA1 151624Z 18007KT 30/17 A3021 RMK A01 T02980169  RH  046%=      5-min Rain = 0
KEA1 151625Z 18010KT 30/17 A3021 RMK A01 T02970170  RH  046%=      5-min Rain = 0
KEA1 151626Z 17011KT 30/17 A3021 RMK A01 T03010168  RH  045%=      5-min Rain = 0
KEA1 151627Z 17008KT 30/17 A3021 RMK A01 T03000167  RH  045%=      5-min Rain = 0
KEA1 151628Z 18006KT 30/17 A3021 RMK A01 T02950166  RH  046%=      5-min Rain = 0
KEA1 151629Z 20012KT 29/17 A302 RMK A01 T02940168  RH  046%=      5-min Rain = 0
KEA1 151630Z 22009KT 30/17 A302 RMK A01 T02950166  RH  046%=      5-min Rain = 0
KEA1 151631Z 21010KT 30/17 A302 RMK A01 T02950168  RH  046%=      5-min Rain = 0
KEA1 151632Z 20007KT 30/17 A302 RMK A01 T02970167  RH  046%=      5-min Rain = 0
KEA1 151633Z 17009KT 30/17 A302 RMK A01 T02970169  RH  046%=      5-min Rain = 0
KEA1 151634Z 18009KT 30/17 A302 RMK A01 T02980169  RH  046%=      5-min Rain = 0
KEA1 151635Z 21010KT 30/17 A302 RMK A01 T03010170  RH  045%=      5-min Rain = 0
KEA1 151636Z 22005KT 30/17 A302 RMK A01 T03010168  RH  045%=      5-min Rain = 0
KEA1 151637Z 20006KT 30/17 A302 RMK A01 T02970167  RH  045%=      5-min Rain = 0
KEA1 151638Z 18007KT 30/17 A302 RMK A01 T02970170  RH  046%=      5-min Rain = 0
KEA1 151639Z 18007KT 30/17 A302 RMK A01 T03000172  RH  046%=      5-min Rain = 0
KEA1 151640Z 16007KT 30/17 A302 RMK A01 T03010173  RH  046%=      5-min Rain = 0
KEA1 151641Z 17006KT 30/17 A302 RMK A01 T03020173  RH  046%=      5-min Rain = 0
KEA1 151642Z 21006KT 30/17 A302 RMK A01 T03000173  RH  046%=      5-min Rain = 0
KEA1 151643Z 23007KT 30/17 A302 RMK A01 T02970170  RH  046%=      5-min Rain = 0
KEA1 151644Z 19008KT 30/18 A302 RMK A01 T02970176  RH  048%=      5-min Rain = 0
KEA1 151645Z 17010KT 30/17 A302 RMK A01 T03030173  RH  046%=      5-min Rain = 0
KEA1 151646Z 17012KT 30/17 A302 RMK A01 T03030173  RH  046%=      5-min Rain = 0
KEA1 151647Z 17013KT 30/17 A302 RMK A01 T03040172  RH  045%=      5-min Rain = 0
KEA1 151648Z 17010KT 30/17 A302 RMK A01 T03020171  RH  045%=      5-min Rain = 0
KEA1 151649Z 17007KT 30/17 A302 RMK A01 T02990171  RH  046%=      5-min Rain = 0
KEA1 151650Z 14006KT 30/17 A3019 RMK A01 T02990172  RH  046%=      5-min Rain = 0
KEA1 151651Z 14006KT 30/17 A3019 RMK A01 T03020172  RH  046%=      5-min Rain = 0
KEA1 151652Z 18007KT 31/17 A3019 RMK A01 T03050174  RH  045%=      5-min Rain = 0
KEA1 151653Z 21009KT 31/17 A3019 RMK A01 T03070171  RH  044%=      5-min Rain = 0
KEA1 151654Z 19010KT 31/16 A3019 RMK A01 T03110163  RH  041%=      5-min Rain = 0
KEA1 151655Z 20011KT 31/16 A3019 RMK A01 T03110159  RH  040%=      5-min Rain = 0
KEA1 151656Z 19011KT 31/16 A3019 RMK A01 T03090159  RH  040%=      5-min Rain = 0
KEA1 151657Z 17011KT 31/16 A3019 RMK A01 T03090161  RH  041%=      5-min Rain = 0
KEA1 151658Z 16012KT 31/16 A3019 RMK A01 T03080162  RH  041%=      5-min Rain = 0
KEA1 151659Z 16009KT 31/16 A3019 RMK A01 T03070161  RH  041%=      5-min Rain = 0
KEA1 151700Z 18010KT 31/16 A3019 RMK A01 T03070163  RH  042%=      5-min Rain = 0
KEA1 151701Z 18008KT 31/16 A3019 RMK A01 T03110164  RH  041%=      5-min Rain = 0
KEA1 151702Z 18010KT 31/16 A3019 RMK A01 T03100164  RH  041%=      5-min Rain = 0
KEA1 151703Z 19014KT 31/16 A3018 RMK A01 T03080164  RH  042%=      5-min Rain = 0
KEA1 151704Z 18010KT 31/16 A3019 RMK A01 T03090164  RH  042%=      5-min Rain = 0
KEA1 151705Z 21011KT 31/16 A3019 RMK A01 T03110162  RH  041%=      5-min Rain = 0
KEA1 151706Z 22011KT 31/15 A3019 RMK A01 T03110153  RH  038%=      5-min Rain = 0
KEA1 151707Z 22011KT 31/15 A3019 RMK A01 T03110154  RH  039%=      5-min Rain = 0
KEA1 151708Z 23011KT 31/16 A3019 RMK A01 T03120155  RH  039%=      5-min Rain = 0
KEA1 151709Z 22006KT 31/16 A3019 RMK A01 T03110156  RH  039%=      5-min Rain = 0
KEA1 151710Z 19010G16KT 31/16 A3019 RMK A01 T03100158  RH  040%=      5-min Rain = 0
KEA1 151711Z 18012KT 31/16 A3019 RMK A01 T03110159  RH  040%=      5-min Rain = 0
KEA1 151712Z 19009KT 31/16 A3018 RMK A01 T03120160  RH  040%=      5-min Rain = 0
KEA1 151713Z 19007KT 31/16 A3018 RMK A01 T03120162  RH  040%=      5-min Rain = 0
KEA1 151714Z 19012KT 31/17 A3018 RMK A01 T03130166  RH  041%=      5-min Rain = 0
KEA1 151715Z 18013KT 32/17 A3018 RMK A01 T03190169  RH  041%=      5-min Rain = 0
KEA1 151716Z 18010KT 32/17 A3018 RMK A01 T03180168  RH  041%=      5-min Rain = 0
KEA1 151717Z 19009KT 32/17 A3018 RMK A01 T03150167  RH  041%=      5-min Rain = 0
KEA1 151718Z 18011KT 31/17 A3018 RMK A01 T03140169  RH  042%=      5-min Rain = 0
KEA1 151719Z 17008KT 31/17 A3018 RMK A01 T03130167  RH  041%=      5-min Rain = 0
KEA1 151720Z 20011KT 31/17 A3018 RMK A01 T03140165  RH  041%=      5-min Rain = 0
KEA1 151721Z 20010KT 32/16 A3018 RMK A01 T03150157  RH  038%=      5-min Rain = 0
KEA1 151722Z 19012KT 31/16 A3018 RMK A01 T03140161  RH  040%=      5-min Rain = 0
KEA1 151723Z 22011KT 32/16 A3018 RMK A01 T03160158  RH  038%=      5-min Rain = 0
KEA1 151724Z 22012KT 32/16 A3018 RMK A01 T03180159  RH  038%=      5-min Rain = 0
KEA1 151725Z 23008KT 32/16 A3018 RMK A01 T03180163  RH  039%=      5-min Rain = 0
KEA1 151726Z 22009G15KT 32/16 A3018 RMK A01 T03170164  RH  040%=      5-min Rain = 0
KEA1 151727Z 21012KT 32/16 A3018 RMK A01 T03200157  RH  037%=      5-min Rain = 0
KEA1 151728Z 21010KT 32/15 A3018 RMK A01 T03230152  RH  036%=      5-min Rain = 0
KEA1 151729Z 21010KT 32/15 A3018 RMK A01 T03190150  RH  036%=      5-min Rain = 0
KEA1 151730Z 21014KT 32/16 A3018 RMK A01 T03190158  RH  038%=      5-min Rain = 0
KEA1 151731Z 21012KT 32/16 A3018 RMK A01 T03200159  RH  038%=      5-min Rain = 0
KEA1 151732Z 22010KT 32/16 A3018 RMK A01 T03200160  RH  038%=      5-min Rain = 0
KEA1 151733Z 19011KT 32/16 A3018 RMK A01 T03220157  RH  037%=      5-min Rain = 0
KEA1 151734Z 19010KT 32/16 A3017 RMK A01 T03230156  RH  037%=      5-min Rain = 0
KEA1 151735Z 19012KT 32/16 A3017 RMK A01 T03240160  RH  037%=      5-min Rain = 0
KEA1 151736Z 19013KT 33/16 A3017 RMK A01 T03250160  RH  037%=      5-min Rain = 0
KEA1 151737Z 19012KT 32/16 A3017 RMK A01 T03240160  RH  037%=      5-min Rain = 0
KEA1 151738Z 19013KT 32/16 A3017 RMK A01 T03230158  RH  037%=      5-min Rain = 0
KEA1 151739Z 21016KT 33/16 A3017 RMK A01 T03270158  RH  036%=      5-min Rain = 0
KEA1 151740Z 21012KT 33/16 A3017 RMK A01 T03250156  RH  036%=      5-min Rain = 0
KEA1 151741Z 21011KT 32/16 A3017 RMK A01 T03220157  RH  037%=      5-min Rain = 0
KEA1 151742Z 20013KT 32/16 A3017 RMK A01 T03210157  RH  037%=      5-min Rain = 0
KEA1 151743Z 20010KT 32/15 A3017 RMK A01 T03230154  RH  036%=      5-min Rain = 0
KEA1 151744Z 21010KT 32/15 A3017 RMK A01 T03220154  RH  036%=      5-min Rain = 0
KEA1 151745Z 18010KT 33/16 A3017 RMK A01 T03250155  RH  036%=      5-min Rain = 0
KEA1 151746Z 18011G17KT 33/15 A3017 RMK A01 T03260150  RH  035%=      5-min Rain = 0
KEA1 151747Z 19017KT 32/15 A3017 RMK A01 T03240147  RH  034%=      5-min Rain = 0
KEA1 151748Z 20017KT 32/15 A3017 RMK A01 T03220147  RH  035%=      5-min Rain = 0
KEA1 151749Z 20013KT 33/15 A3017 RMK A01 T03250150  RH  035%=      5-min Rain = 0
KEA1 151750Z 22013KT 33/15 A3017 RMK A01 T03290150  RH  034%=      5-min Rain = 0
KEA1 151751Z 21011KT 33/15 A3017 RMK A01 T03260148  RH  034%=      5-min Rain = 0
KEA1 151752Z 21008KT 32/15 A3017 RMK A01 T03220146  RH  035%=      5-min Rain = 0
KEA1 151753Z 20009KT 32/15 A3017 RMK A01 T03220148  RH  035%=      5-min Rain = 0
KEA1 151754Z 19013KT 33/15 A3017 RMK A01 T03250151  RH  035%=      5-min Rain = 0
KEA1 151755Z 20013KT 33/15 A3016 RMK A01 T03260151  RH  035%=      5-min Rain = 0
KEA1 151756Z 20016KT 33/15 A3016 RMK A01 T03260149  RH  034%=      5-min Rain = 0
KEA1 151757Z 21012KT 33/15 A3017 RMK A01 T03260148  RH  034%=      5-min Rain = 0
KEA1 151758Z 23010G15KT 32/15 A3017 RMK A01 T03240150  RH  035%=      5-min Rain = 0
KEA1 151759Z 22009KT 32/15 A3017 RMK A01 T03230151  RH  035%=      5-min Rain = 0
KEA1 151800Z 22012G17KT 32/16 A3016 RMK A01 T03240156  RH  036%=      5-min Rain = 0
KEA1 151801Z 24009KT 33/15 A3016 RMK A01 T03270154  RH  035%=      5-min Rain = 0
KEA1 151802Z 23010G15KT 32/15 A3016 RMK A01 T03230153  RH  036%=      5-min Rain = 0
KEA1 151803Z 20015G22KT 33/16 A3016 RMK A01 T03270155  RH  036%=      5-min Rain = 0
KEA1 151804Z 20016KT 33/15 A3016 RMK A01 T03320151  RH  034%=      5-min Rain = 0
KEA1 151805Z 19015KT 33/15 A3016 RMK A01 T03320151  RH  034%=      5-min Rain = 0
KEA1 151806Z 19016KT 33/15 A3016 RMK A01 T03310150  RH  034%=      5-min Rain = 0
KEA1 151807Z 18013KT 33/15 A3016 RMK A01 T03260149  RH  035%=      5-min Rain = 0
KEA1 151808Z 19013KT 32/15 A3016 RMK A01 T03240151  RH  035%=      5-min Rain = 0
KEA1 151809Z 19008KT 32/15 A3016 RMK A01 T03210146  RH  035%=      5-min Rain = 0
KEA1 151810Z 21007KT 32/15 A3016 RMK A01 T03220148  RH  035%=      5-min Rain = 0
KEA1 151811Z 18009KT 33/15 A3015 RMK A01 T03260150  RH  035%=      5-min Rain = 0
KEA1 151812Z 20013KT 33/15 A3015 RMK A01 T03330153  RH  034%=      5-min Rain = 0
KEA1 151813Z 21014KT 34/15 A3015 RMK A01 T03390151  RH  032%=      5-min Rain = 0
KEA1 151814Z 22015G20KT 34/15 A3015 RMK A01 T03380147  RH  032%=      5-min Rain = 0
KEA1 151815Z 21011KT 34/14 A3016 RMK A01 T03360143  RH  031%=      5-min Rain = 0
KEA1 151816Z 19010KT 33/14 A3015 RMK A01 T03300140  RH  032%=      5-min Rain = 0
KEA1 151817Z 19011KT 33/14 A3015 RMK A01 T03280143  RH  033%=      5-min Rain = 0
KEA1 151818Z 21009KT 33/14 A3015 RMK A01 T03300144  RH  033%=      5-min Rain = 0
KEA1 151819Z 22010G17KT 33/15 A3015 RMK A01 T03310148  RH  033%=      5-min Rain = 0
KEA1 151820Z 21013G18KT 33/15 A3015 RMK A01 T03330148  RH  033%=      5-min Rain = 0
KEA1 151821Z 21018KT 33/15 A3015 RMK A01 T03340147  RH  032%=      5-min Rain = 0
KEA1 151822Z 21015KT 34/14 A3015 RMK A01 T03360144  RH  031%=      5-min Rain = 0
KEA1 151823Z 21009KT 34/14 A3015 RMK A01 T03360143  RH  031%=      5-min Rain = 0
KEA1 151824Z 20011KT 34/14 A3015 RMK A01 T03350143  RH  032%=      5-min Rain = 0
KEA1 151825Z 20014G19KT 33/15 A3015 RMK A01 T03330145  RH  032%=      5-min Rain = 0
KEA1 151826Z 20011KT 34/14 A3015 RMK A01 T03360138  RH  030%=      5-min Rain = 0
KEA1 151827Z 20010KT 34/14 A3015 RMK A01 T03370135  RH  030%=      5-min Rain = 0
KEA1 151828Z 23014KT 34/14 A3015 RMK A01 T03350137  RH  030%=      5-min Rain = 0
KEA1 151829Z 23015KT 33/15 A3015 RMK A01 T03340145  RH  032%=      5-min Rain = 0
KEA1 151830Z 23018KT 34/14 A3015 RMK A01 T03350141  RH  031%=      5-min Rain = 0
KEA1 151831Z 23015KT 33/14 A3014 RMK A01 T03340143  RH  032%=      5-min Rain = 0
KEA1 151832Z 22011KT 33/14 A3014 RMK A01 T03330142  RH  032%=      5-min Rain = 0
KEA1 151833Z 23008KT 33/14 A3014 RMK A01 T03310140  RH  032%=      5-min Rain = 0
KEA1 151834Z 24012KT 33/14 A3014 RMK A01 T03310143  RH  032%=      5-min Rain = 0
KEA1 151835Z 24011KT 33/15 A3014 RMK A01 T03330145  RH  032%=      5-min Rain = 0
KEA1 151836Z 23011KT 34/15 A3014 RMK A01 T03360148  RH  032%=      5-min Rain = 0
KEA1 151837Z 21014G19KT 34/15 A3014 RMK A01 T03420149  RH  032%=      5-min Rain = 0
KEA1 151838Z 20013KT 34/14 A3014 RMK A01 T03410142  RH  030%=      5-min Rain = 0
KEA1 151839Z 19012KT 33/14 A3014 RMK A01 T03330141  RH  031%=      5-min Rain = 0
KEA1 151840Z 21014G19KT 34/14 A3013 RMK A01 T03360141  RH  031%=      5-min Rain = 0
KEA1 151841Z 20014KT 34/14 A3013 RMK A01 T03380144  RH  031%=      5-min Rain = 0
KEA1 151842Z 18012KT 34/14 A3013 RMK A01 T03370144  RH  031%=      5-min Rain = 0
KEA1 151843Z 21012KT 34/15 A3013 RMK A01 T03380146  RH  032%=      5-min Rain = 0
KEA1 151844Z 21012KT 35/15 A3014 RMK A01 T03460148  RH  031%=      5-min Rain = 0
KEA1 151845Z 24012KT 35/14 A3014 RMK A01 T03490144  RH  029%=      5-min Rain = 0
KEA1 151846Z 24012KT 35/14 A3014 RMK A01 T03470141  RH  029%=      5-min Rain = 0
KEA1 151847Z 25016G21KT 35/14 A3014 RMK A01 T03480140  RH  029%=      5-min Rain = 0
KEA1 151848Z 25014KT 35/14 A3014 RMK A01 T03450138  RH  029%=      5-min Rain = 0
KEA1 151849Z 24015KT 34/14 A3013 RMK A01 T03410139  RH  030%=      5-min Rain = 0
KEA1 151850Z 25012KT 34/14 A3013 RMK A01 T03400138  RH  030%=      5-min Rain = 0
KEA1 151851Z 24017KT 34/14 A3013 RMK A01 T03390138  RH  030%=      5-min Rain = 0
KEA1 151852Z 23018KT 34/14 A3013 RMK A01 T03370141  RH  031%=      5-min Rain = 0
KEA1 151853Z 23014G19KT 34/14 A3013 RMK A01 T03380138  RH  030%=      5-min Rain = 0
KEA1 151854Z 21012KT 34/14 A3013 RMK A01 T03360137  RH  030%=      5-min Rain = 0
KEA1 151855Z 22013KT 34/14 A3013 RMK A01 T03380136  RH  030%=      5-min Rain = 0
KEA1 151856Z 23009KT 34/13 A3013 RMK A01 T03360134  RH  029%=      5-min Rain = 0
KEA1 151857Z 24012KT 34/14 A3013 RMK A01 T03360138  RH  030%=      5-min Rain = 0
KEA1 151858Z 24010KT 34/14 A3013 RMK A01 T03410140  RH  030%=      5-min Rain = 0
KEA1 151859Z 24009KT 34/14 A3013 RMK A01 T03430138  RH  029%=      5-min Rain = 0
KEA1 151900Z 24011KT 34/14 A3013 RMK A01 T03400140  RH  030%=      5-min Rain = 0
KEA1 151901Z 24015KT 34/14 A3013 RMK A01 T03420139  RH  029%=      5-min Rain = 0
KEA1 151902Z 23011KT 35/14 A3013 RMK A01 T03450139  RH  029%=      5-min Rain = 0
KEA1 151903Z 23013G18KT 34/14 A3013 RMK A01 T03440143  RH  030%=      5-min Rain = 0
KEA1 151904Z 21010KT 35/15 A3012 RMK A01 T03490146  RH  030%=      5-min Rain = 0
KEA1 151905Z 19015KT 35/14 A3012 RMK A01 T03510142  RH  028%=      5-min Rain = 0
KEA1 151906Z 20013KT 35/14 A3012 RMK A01 T03490140  RH  028%=      5-min Rain = 0
KEA1 151907Z 23014G19KT 35/14 A3012 RMK A01 T03470143  RH  030%=      5-min Rain = 0
KEA1 151908Z 23017KT 35/15 A3012 RMK A01 T03480146  RH  030%=      5-min Rain = 0
KEA1 151909Z 21017G22KT 35/14 A3012 RMK A01 T03470141  RH  029%=      5-min Rain = 0
KEA1 151910Z 21012KT 35/14 A3012 RMK A01 T03450136  RH  028%=      5-min Rain = 0
KEA1 151911Z 22009KT 34/14 A3012 RMK A01 T03410138  RH  029%=      5-min Rain = 0
KEA1 151912Z 20013G19KT 34/14 A3012 RMK A01 T03400141  RH  030%=      5-min Rain = 0
KEA1 151913Z 19011G17KT 34/14 A3012 RMK A01 T03430139  RH  029%=      5-min Rain = 0
KEA1 151914Z 20008KT 34/14 A3012 RMK A01 T03430141  RH  030%=      5-min Rain = 0
KEA1 151915Z 22014KT 35/14 A3012 RMK A01 T03460144  RH  030%=      5-min Rain = 0
KEA1 151916Z 21013KT 35/14 A3012 RMK A01 T03480143  RH  029%=      5-min Rain = 0
KEA1 151917Z 20011KT 35/14 A3012 RMK A01 T03490138  RH  028%=      5-min Rain = 0
KEA1 151918Z 24014KT 35/14 A3012 RMK A01 T03480139  RH  028%=      5-min Rain = 0
KEA1 151919Z 24016KT 35/13 A3012 RMK A01 T03490133  RH  027%=      5-min Rain = 0
KEA1 151920Z 24014G19KT 35/13 A3012 RMK A01 T03510132  RH  027%=      5-min Rain = 0
KEA1 151921Z 23016G21KT 35/13 A3012 RMK A01 T03540134  RH  027%=      5-min Rain = 0
KEA1 151922Z 25014KT 35/14 A3012 RMK A01 T03530135  RH  027%=      5-min Rain = 0
KEA1 151923Z 23011KT 35/14 A3012 RMK A01 T03530140  RH  028%=      5-min Rain = 0
KEA1 151924Z 21014KT 36/14 A3012 RMK A01 T03560141  RH  028%=      5-min Rain = 0
KEA1 151925Z 24014G21KT 35/14 A3012 RMK A01 T03520136  RH  027%=      5-min Rain = 0
KEA1 151926Z 24016KT 35/13 A3012 RMK A01 T03470133  RH  028%=      5-min Rain = 0
KEA1 151927Z 25014G19KT 35/13 A3012 RMK A01 T03450132  RH  028%=      5-min Rain = 0
KEA1 151928Z 25014G19KT 35/13 A3011 RMK A01 T03460134  RH  028%=      5-min Rain = 0
KEA1 151929Z 24013G19KT 35/13 A3012 RMK A01 T03490131  RH  027%=      5-min Rain = 0
KEA1 151930Z 23014KT 35/13 A3011 RMK A01 T03450132  RH  028%=      5-min Rain = 0
KEA1 151931Z 21014G19KT 35/14 A3011 RMK A01 T03460142  RH  030%=      5-min Rain = 0
KEA1 151932Z 20013G20KT 35/14 A3011 RMK A01 T03480140  RH  029%=      5-min Rain = 0
KEA1 151933Z 22013KT 35/14 A3011 RMK A01 T03450141  RH  029%=      5-min Rain = 0
KEA1 151934Z 24016KT 34/14 A3011 RMK A01 T03440140  RH  029%=      5-min Rain = 0
KEA1 151935Z 25013KT 35/14 A3011 RMK A01 T03450138  RH  029%=      5-min Rain = 0
KEA1 151936Z 24010KT 35/14 A3011 RMK A01 T03460139  RH  029%=      5-min Rain = 0
KEA1 151937Z 27007KT 35/14 A3011 RMK A01 T03470139  RH  029%=      5-min Rain = 0
KEA1 151938Z 26009G14KT 35/14 A3011 RMK A01 T03500137  RH  028%=      5-min Rain = 0
KEA1 151939Z 22013G18KT 36/14 A3011 RMK A01 T03550137  RH  027%=      5-min Rain = 0
KEA1 151940Z 21014KT 36/14 A3011 RMK A01 T03570139  RH  027%=      5-min Rain = 0
KEA1 151941Z 22010KT 35/13 A3011 RMK A01 T03530134  RH  027%=      5-min Rain = 0
KEA1 151942Z 25011KT 35/14 A3011 RMK A01 T03510137  RH  028%=      5-min Rain = 0
KEA1 151943Z 25010KT 36/14 A3011 RMK A01 T03550139  RH  027%=      5-min Rain = 0
KEA1 151944Z 24011G16KT 36/14 A3011 RMK A01 T03560138  RH  027%=      5-min Rain = 0
KEA1 151945Z 24011KT 36/14 A3011 RMK A01 T03550138  RH  027%=      5-min Rain = 0
KEA1 151946Z 22013KT 35/14 A3011 RMK A01 T03530138  RH  027%=      5-min Rain = 0
KEA1 151947Z 23013KT 35/14 A3011 RMK A01 T03510136  RH  027%=      5-min Rain = 0
KEA1 151948Z 24011KT 35/14 A3011 RMK A01 T03510140  RH  028%=      5-min Rain = 0
KEA1 151949Z 22014KT 35/14 A301 RMK A01 T03490144  RH  029%=      5-min Rain = 0
KEA1 151950Z 21016KT 35/14 A301 RMK A01 T03500144  RH  029%=      5-min Rain = 0
KEA1 151951Z 19017KT 35/14 A301 RMK A01 T03510138  RH  028%=      5-min Rain = 0
KEA1 151952Z 18012KT 35/14 A301 RMK A01 T03490137  RH  028%=      5-min Rain = 0
KEA1 151953Z 19011KT 35/14 A301 RMK A01 T03470137  RH  028%=      5-min Rain = 0
KEA1 151954Z 21008KT 35/14 A301 RMK A01 T03450136  RH  028%=      5-min Rain = 0
KEA1 151955Z 21008G13KT 35/14 A301 RMK A01 T03500140  RH  028%=      5-min Rain = 0
KEA1 151956Z 21011KT 36/14 A301 RMK A01 T03590138  RH  027%=      5-min Rain = 0
KEA1 151957Z 24016KT 36/14 A301 RMK A01 T03640136  RH  026%=      5-min Rain = 0
KEA1 151958Z 23016KT 36/14 A301 RMK A01 T03620136  RH  026%=      5-min Rain = 0
KEA1 151959Z 23016KT 36/14 A301 RMK A01 T03610138  RH  027%=      5-min Rain = 0
KEA1 152000Z 23016G21KT 36/14 A301 RMK A01 T03560137  RH  027%=      5-min Rain = 0
KEA1 152001Z 21013KT 35/13 A301 RMK A01 T03510131  RH  027%=      5-min Rain = 0
KEA1 152002Z 21010G15KT 35/13 A301 RMK A01 T03520129  RH  026%=      5-min Rain = 0
KEA1 152003Z 21008KT 35/14 A3009 RMK A01 T03530135  RH  027%=      5-min Rain = 0
KEA1 152004Z 20008KT 36/13 A3009 RMK A01 T03550128  RH  026%=      5-min Rain = 0
KEA1 152005Z 24013KT 36/13 A3009 RMK A01 T03570129  RH  025%=      5-min Rain = 0
KEA1 152006Z 23013G20KT 36/13 A3009 RMK A01 T03570131  RH  026%=      5-min Rain = 0
KEA1 152007Z 21016KT 36/13 A3009 RMK A01 T03590125  RH  025%=      5-min Rain = 0
KEA1 152008Z 21013KT 36/12 A3009 RMK A01 T03590117  RH  023%=      5-min Rain = 0
KEA1 152009Z 20017KT 36/11 A3009 RMK A01 T03550114  RH  023%=      5-min Rain = 0
KEA1 152010Z 20015KT 35/11 A3009 RMK A01 T03510113  RH  024%=      5-min Rain = 0
KEA1 152011Z 21014KT 35/12 A3009 RMK A01 T03490121  RH  025%=      5-min Rain = 0
KEA1 152012Z 20010KT 35/13 A3009 RMK A01 T03490126  RH  026%=      5-min Rain = 0
KEA1 152013Z 20012KT 35/13 A3009 RMK A01 T03510125  RH  026%=      5-min Rain = 0
KEA1 152014Z 22009KT 35/13 A3009 RMK A01 T03510126  RH  026%=      5-min Rain = 0
KEA1 152015Z 19010G15KT 35/13 A3009 RMK A01 T03530129  RH  026%=      5-min Rain = 0
KEA1 152016Z 20010KT 36/13 A3008 RMK A01 T03550129  RH  026%=      5-min Rain = 0
KEA1 152017Z 20011G18KT 35/13 A3008 RMK A01 T03540128  RH  026%=      5-min Rain = 0
KEA1 152018Z 19014KT 35/13 A3008 RMK A01 T03540129  RH  026%=      5-min Rain = 0
KEA1 152019Z 18014KT 35/13 A3008 RMK A01 T03540126  RH  025%=      5-min Rain = 0
KEA1 152020Z 19016KT 35/13 A3008 RMK A01 T03530129  RH  026%=      5-min Rain = 0
KEA1 152021Z 21015G21KT 36/13 A3008 RMK A01 T03640132  RH  025%=      5-min Rain = 0
KEA1 152022Z 22015G23KT 37/13 A3008 RMK A01 T03680133  RH  025%=      5-min Rain = 0
KEA1 152023Z 20016KT 37/13 A3008 RMK A01 T03660131  RH  025%=      5-min Rain = 0
KEA1 152024Z 19017KT 36/13 A3008 RMK A01 T03620130  RH  025%=      5-min Rain = 0
KEA1 152025Z 19012KT 36/13 A3008 RMK A01 T03610131  RH  025%=      5-min Rain = 0
KEA1 152026Z 20010KT 36/13 A3008 RMK A01 T03610133  RH  026%=      5-min Rain = 0
KEA1 152027Z 20008KT 36/14 A3008 RMK A01 T03630135  RH  025%=      5-min Rain = 0
KEA1 152028Z 20011KT 36/14 A3007 RMK A01 T03630135  RH  025%=      5-min Rain = 0
KEA1 152029Z 22010KT 36/14 A3007 RMK A01 T03600140  RH  027%=      5-min Rain = 0
KEA1 152030Z 20012KT 36/14 A3007 RMK A01 T03590135  RH  026%=      5-min Rain = 0
KEA1 152031Z 20017KT 36/14 A3007 RMK A01 T03580135  RH  026%=      5-min Rain = 0
KEA1 152032Z 20017KT 36/14 A3007 RMK A01 T03620136  RH  026%=      5-min Rain = 0
KEA1 152033Z 20016KT 36/14 A3007 RMK A01 T03600135  RH  026%=      5-min Rain = 0
KEA1 152034Z 21013KT 36/14 A3007 RMK A01 T03590135  RH  026%=      5-min Rain = 0
KEA1 152035Z 19015KT 36/14 A3007 RMK A01 T03590135  RH  026%=      5-min Rain = 0
KEA1 152036Z 19010KT 36/13 A3007 RMK A01 T03590134  RH  026%=      5-min Rain = 0
KEA1 152037Z 19011KT 36/14 A3007 RMK A01 T03590135  RH  026%=      5-min Rain = 0
KEA1 152038Z 19009KT 36/13 A3007 RMK A01 T03570133  RH  026%=      5-min Rain = 0
KEA1 152039Z 20013G18KT 36/14 A3007 RMK A01 T03600136  RH  026%=      5-min Rain = 0
KEA1 152040Z 23012KT 37/14 A3007 RMK A01 T03660136  RH  025%=      5-min Rain = 0
KEA1 152041Z 21014KT 37/14 A3007 RMK A01 T03670136  RH  025%=      5-min Rain = 0
KEA1 152042Z 21011KT 36/13 A3007 RMK A01 T03620129  RH  025%=      5-min Rain = 0
KEA1 152043Z 22011G18KT 36/13 A3007 RMK A01 T03560128  RH  025%=      5-min Rain = 0
KEA1 152044Z 21016KT 36/13 A3007 RMK A01 T03560130  RH  026%=      5-min Rain = 0
KEA1 152045Z 21015KT 36/13 A3007 RMK A01 T03570126  RH  025%=      5-min Rain = 0
KEA1 152046Z 22013KT 36/14 A3007 RMK A01 T03600139  RH  027%=      5-min Rain = 0
KEA1 152047Z 22013KT 36/15 A3007 RMK A01 T03630146  RH  027%=      5-min Rain = 0
KEA1 152048Z 22009KT 37/15 A3007 RMK A01 T03650145  RH  027%=      5-min Rain = 0
KEA1 152049Z 24011KT 36/14 A3007 RMK A01 T03640143  RH  027%=      5-min Rain = 0
KEA1 152050Z 24009KT 36/14 A3007 RMK A01 T03600140  RH  027%=      5-min Rain = 0
KEA1 152051Z 25010KT 36/14 A3006 RMK A01 T03580144  RH  028%=      5-min Rain = 0
KEA1 152052Z 23009KT 36/15 A3006 RMK A01 T03610145  RH  028%=      5-min Rain = 0
KEA1 152053Z 22016G21KT 36/15 A3006 RMK A01 T03580145  RH  028%=      5-min Rain = 0
KEA1 152054Z 22012KT 36/14 A3006 RMK A01 T03600143  RH  027%=      5-min Rain = 0
KEA1 152055Z 22015KT 36/14 A3006 RMK A01 T03590142  RH  027%=      5-min Rain = 0
KEA1 152056Z 21010KT 36/14 A3006 RMK A01 T03580139  RH  027%=      5-min Rain = 0
KEA1 152057Z 20008G13KT 36/14 A3006 RMK A01 T03550140  RH  028%=      5-min Rain = 0
KEA1 152058Z 20010KT 36/14 A3006 RMK A01 T03550143  RH  028%=      5-min Rain = 0
KEA1 152059Z 19015KT 36/14 A3006 RMK A01 T03590141  RH  027%=      5-min Rain = 0
KEA1 152100Z 20013G18KT 36/14 A3005 RMK A01 T03590138  RH  027%=      5-min Rain = 0
KEA1 152101Z 21009KT 35/14 A3006 RMK A01 T03520137  RH  027%=      5-min Rain = 0
KEA1 152102Z 19009KT 35/14 A3006 RMK A01 T03480137  RH  028%=      5-min Rain = 0
KEA1 152103Z 20008KT 35/14 A3006 RMK A01 T03470137  RH  028%=      5-min Rain = 0
KEA1 152104Z 22009KT 35/14 A3006 RMK A01 T03460138  RH  029%=      5-min Rain = 0
KEA1 152105Z 19007KT 35/14 A3006 RMK A01 T03450138  RH  029%=      5-min Rain = 0
KEA1 152106Z 20010G16KT 35/14 A3005 RMK A01 T03450138  RH  029%=      5-min Rain = 0
KEA1 152107Z 22011KT 35/14 A3005 RMK A01 T03460143  RH  030%=      5-min Rain = 0
KEA1 152108Z 20010KT 35/15 A3005 RMK A01 T03460146  RH  030%=      5-min Rain = 0
KEA1 152109Z 19013KT 35/14 A3005 RMK A01 T03510142  RH  029%=      5-min Rain = 0
KEA1 152110Z 19009KT 35/14 A3005 RMK A01 T03520141  RH  028%=      5-min Rain = 0
KEA1 152111Z 21011KT 35/14 A3005 RMK A01 T03530141  RH  028%=      5-min Rain = 0
KEA1 152112Z 24009KT 36/15 A3005 RMK A01 T03610146  RH  028%=      5-min Rain = 0
KEA1 152113Z 25009KT 36/14 A3005 RMK A01 T03630141  RH  027%=      5-min Rain = 0
KEA1 152114Z 25008KT 36/14 A3005 RMK A01 T03590139  RH  027%=      5-min Rain = 0
KEA1 152115Z 25010KT 36/14 A3005 RMK A01 T03560139  RH  027%=      5-min Rain = 0
KEA1 152116Z 24008KT 36/14 A3005 RMK A01 T03570140  RH  027%=      5-min Rain = 0
KEA1 152117Z 22008KT 36/14 A3005 RMK A01 T03570141  RH  028%=      5-min Rain = 0
KEA1 152118Z 21010KT 36/15 A3005 RMK A01 T03570146  RH  028%=      5-min Rain = 0
KEA1 152119Z 20011KT 36/14 A3005 RMK A01 T03610142  RH  027%=      5-min Rain = 0
KEA1 152120Z 20010G16KT 36/14 A3005 RMK A01 T03620142  RH  027%=      5-min Rain = 0
KEA1 152121Z 19011KT 37/14 A3005 RMK A01 T03650140  RH  026%=      5-min Rain = 0
KEA1 152122Z 23012KT 37/14 A3005 RMK A01 T03680140  RH  026%=      5-min Rain = 0
KEA1 152123Z 25015KT 37/14 A3005 RMK A01 T03650135  RH  025%=      5-min Rain = 0
KEA1 152124Z 23012KT 36/13 A3005 RMK A01 T03570132  RH  026%=      5-min Rain = 0
KEA1 152125Z 25008KT 35/13 A3005 RMK A01 T03520131  RH  026%=      5-min Rain = 0
KEA1 152126Z 24009KT 35/13 A3005 RMK A01 T03510132  RH  027%=      5-min Rain = 0
KEA1 152127Z 24014KT 35/13 A3005 RMK A01 T03530131  RH  026%=      5-min Rain = 0
KEA1 152128Z 23015G20KT 36/14 A3005 RMK A01 T03590135  RH  026%=      5-min Rain = 0
KEA1 152129Z 22011KT 36/14 A3005 RMK A01 T03630141  RH  027%=      5-min Rain = 0
KEA1 152130Z 21011KT 36/14 A3005 RMK A01 T03630137  RH  026%=      5-min Rain = 0
KEA1 152131Z 23012KT 36/14 A3005 RMK A01 T03610136  RH  026%=      5-min Rain = 0
KEA1 152132Z 24012KT 36/14 A3005 RMK A01 T03640138  RH  026%=      5-min Rain = 0
KEA1 152133Z 22014KT 36/13 A3004 RMK A01 T03640132  RH  025%=      5-min Rain = 0
KEA1 152134Z 22010KT 36/13 A3005 RMK A01 T03620131  RH  025%=      5-min Rain = 0
KEA1 152135Z 21012KT 36/14 A3004 RMK A01 T03600135  RH  026%=      5-min Rain = 0
KEA1 152136Z 21010G17KT 36/14 A3004 RMK A01 T03590140  RH  027%=      5-min Rain = 0
KEA1 152137Z 23008KT 36/14 A3004 RMK A01 T03600140  RH  027%=      5-min Rain = 0
KEA1 152138Z 21009KT 36/14 A3004 RMK A01 T03630139  RH  026%=      5-min Rain = 0
KEA1 152139Z 22013KT 36/14 A3004 RMK A01 T03640142  RH  027%=      5-min Rain = 0
KEA1 152140Z 24011KT 36/14 A3004 RMK A01 T03640138  RH  026%=      5-min Rain = 0
KEA1 152141Z 25013KT 36/14 A3004 RMK A01 T03640137  RH  026%=      5-min Rain = 0
KEA1 152142Z 22008KT 37/14 A3004 RMK A01 T03650138  RH  026%=      5-min Rain = 0
KEA1 152143Z 21015KT 37/14 A3004 RMK A01 T03680140  RH  026%=      5-min Rain = 0
KEA1 152144Z 21015KT 36/14 A3004 RMK A01 T03640139  RH  026%=      5-min Rain = 0
KEA1 152145Z 21012KT 36/14 A3004 RMK A01 T03610138  RH  026%=      5-min Rain = 0
KEA1 152146Z 21010KT 36/14 A3004 RMK A01 T03600142  RH  027%=      5-min Rain = 0
KEA1 152147Z 20013G19KT 36/14 A3004 RMK A01 T03630144  RH  027%=      5-min Rain = 0
KEA1 152148Z 20015KT 37/14 A3004 RMK A01 T03660142  RH  026%=      5-min Rain = 0
KEA1 152149Z 19012KT 36/14 A3004 RMK A01 T03640141  RH  027%=      5-min Rain = 0
KEA1 152150Z 22008KT 36/14 A3004 RMK A01 T03630143  RH  027%=      5-min Rain = 0
KEA1 152151Z 22006KT 36/14 A3004 RMK A01 T03610140  RH  027%=      5-min Rain = 0
KEA1 152152Z 21014KT 36/14 A3004 RMK A01 T03570141  RH  028%=      5-min Rain = 0
KEA1 152153Z 21011KT 35/14 A3004 RMK A01 T03530142  RH  028%=      5-min Rain = 0
KEA1 152154Z 21013KT 35/14 A3004 RMK A01 T03500143  RH  029%=      5-min Rain = 0
KEA1 152155Z 23006KT 35/14 A3004 RMK A01 T03470139  RH  029%=      5-min Rain = 0
KEA1 152156Z 21007KT 35/14 A3004 RMK A01 T03490141  RH  029%=      5-min Rain = 0
KEA1 152157Z 20010KT 36/14 A3004 RMK A01 T03560140  RH  028%=      5-min Rain = 0
KEA1 152158Z 20008KT 36/14 A3004 RMK A01 T03580140  RH  027%=      5-min Rain = 0
KEA1 152159Z 20009KT 36/14 A3004 RMK A01 T03600140  RH  027%=      5-min Rain = 0
KEA1 152200Z 21010KT 36/14 A3004 RMK A01 T03620141  RH  027%=      5-min Rain = 0
KEA1 152201Z 21007KT 36/14 A3004 RMK A01 T03620138  RH  026%=      5-min Rain = 0
KEA1 152202Z 21009G22KT 36/14 A3004 RMK A01 T03640137  RH  026%=      5-min Rain = 0
KEA1 152203Z 24012KT 37/14 A3004 RMK A01 T03660136  RH  025%=      5-min Rain = 0
KEA1 152204Z 23007KT 36/13 A3004 RMK A01 T03610133  RH  025%=      5-min Rain = 0
KEA1 152205Z 21006KT 36/14 A3004 RMK A01 T03610140  RH  027%=      5-min Rain = 0
KEA1 152206Z 18011KT 37/14 A3003 RMK A01 T03670136  RH  025%=      5-min Rain = 0
KEA1 152207Z 20014G19KT 37/13 A3003 RMK A01 T03690133  RH  024%=      5-min Rain = 0
KEA1 152208Z 21014KT 37/13 A3003 RMK A01 T03690132  RH  024%=      5-min Rain = 0
KEA1 152209Z 19014KT 37/13 A3003 RMK A01 T03650130  RH  024%=      5-min Rain = 0
KEA1 152210Z 18011KT 36/13 A3003 RMK A01 T03610130  RH  025%=      5-min Rain = 0
KEA1 152211Z 17014KT 36/13 A3003 RMK A01 T03580131  RH  026%=      5-min Rain = 0
KEA1 152212Z 19012KT 36/13 A3003 RMK A01 T03600132  RH  026%=      5-min Rain = 0
KEA1 152213Z 20010KT 36/13 A3003 RMK A01 T03620133  RH  026%=      5-min Rain = 0
KEA1 152214Z 19013KT 37/13 A3003 RMK A01 T03670134  RH  025%=      5-min Rain = 0
KEA1 152215Z 21012KT 37/13 A3003 RMK A01 T03660133  RH  025%=      5-min Rain = 0
KEA1 152216Z 20011KT 37/13 A3003 RMK A01 T03660134  RH  025%=      5-min Rain = 0
KEA1 152217Z 19011KT 37/14 A3003 RMK A01 T03670135  RH  025%=      5-min Rain = 0
KEA1 152218Z 20013KT 36/13 A3003 RMK A01 T03630134  RH  026%=      5-min Rain = 0
KEA1 152219Z 21015KT 36/13 A3003 RMK A01 T03620133  RH  025%=      5-min Rain = 0
KEA1 152220Z 22009KT 36/13 A3003 RMK A01 T03620132  RH  025%=      5-min Rain = 0
KEA1 152221Z 21011KT 36/14 A3003 RMK A01 T03620135  RH  026%=      5-min Rain = 0
KEA1 152222Z 22016KT 36/14 A3003 RMK A01 T03620135  RH  026%=      5-min Rain = 0
KEA1 152223Z 24012KT 36/13 A3003 RMK A01 T03610134  RH  026%=      5-min Rain = 0
KEA1 152224Z 21012KT 36/13 A3003 RMK A01 T03630133  RH  025%=      5-min Rain = 0
KEA1 152225Z 20010KT 36/13 A3003 RMK A01 T03620131  RH  025%=      5-min Rain = 0
KEA1 152226Z 19012KT 37/13 A3003 RMK A01 T03650128  RH  024%=      5-min Rain = 0
KEA1 152227Z 19011KT 36/13 A3003 RMK A01 T03640127  RH  024%=      5-min Rain = 0
KEA1 152228Z 20014KT 36/13 A3003 RMK A01 T03640126  RH  024%=      5-min Rain = 0
KEA1 152229Z 21011KT 36/13 A3003 RMK A01 T03620125  RH  024%=      5-min Rain = 0
KEA1 152230Z 19010KT 36/13 A3003 RMK A01 T03610125  RH  024%=      5-min Rain = 0
KEA1 152231Z 19009KT 36/12 A3003 RMK A01 T03600124  RH  024%=      5-min Rain = 0
KEA1 152232Z 20010KT 36/13 A3003 RMK A01 T03630125  RH  024%=      5-min Rain = 0
KEA1 152233Z 20010G16KT 36/13 A3003 RMK A01 T03630128  RH  024%=      5-min Rain = 0
KEA1 152234Z 20015KT 36/13 A3003 RMK A01 T03630128  RH  024%=      5-min Rain = 0
KEA1 152235Z 20012KT 36/13 A3003 RMK A01 T03610126  RH  024%=      5-min Rain = 0
KEA1 152236Z 20011KT 36/13 A3003 RMK A01 T03610126  RH  024%=      5-min Rain = 0
KEA1 152237Z 20013KT 36/13 A3003 RMK A01 T03610125  RH  024%=      5-min Rain = 0
KEA1 152238Z 20014KT 36/13 A3003 RMK A01 T03610125  RH  024%=      5-min Rain = 0
KEA1 152239Z 20008KT 36/13 A3003 RMK A01 T03590125  RH  024%=      5-min Rain = 0
KEA1 152240Z 17005KT 36/12 A3003 RMK A01 T03580123  RH  024%=      5-min Rain = 0
KEA1 152241Z 18006KT 36/12 A3003 RMK A01 T03590124  RH  024%=      5-min Rain = 0
KEA1 152242Z 19010G18KT 36/13 A3003 RMK A01 T03610125  RH  024%=      5-min Rain = 0
KEA1 152243Z 20016KT 36/12 A3003 RMK A01 T03620124  RH  024%=      5-min Rain = 0
KEA1 152244Z 20014KT 37/12 A3003 RMK A01 T03650121  RH  023%=      5-min Rain = 0
KEA1 152245Z 20011G16KT 37/12 A3003 RMK A01 T03660122  RH  023%=      5-min Rain = 0
KEA1 152246Z 20016KT 37/12 A3003 RMK A01 T03680124  RH  023%=      5-min Rain = 0
KEA1 152247Z 19013KT 37/12 A3003 RMK A01 T03650123  RH  023%=      5-min Rain = 0
KEA1 152248Z 19012KT 37/12 A3003 RMK A01 T03650124  RH  024%=      5-min Rain = 0
KEA1 152249Z 21012KT 37/13 A3003 RMK A01 T03660125  RH  024%=      5-min Rain = 0
KEA1 152250Z 21010KT 36/12 A3003 RMK A01 T03640124  RH  024%=      5-min Rain = 0
KEA1 152251Z 21008G13KT 36/13 A3003 RMK A01 T03620128  RH  025%=      5-min Rain = 0
KEA1 152252Z 22008KT 36/13 A3003 RMK A01 T03580126  RH  025%=      5-min Rain = 0
KEA1 152253Z 24009KT 36/13 A3003 RMK A01 T03580131  RH  026%=      5-min Rain = 0
KEA1 152254Z 20010KT 36/13 A3003 RMK A01 T03610128  RH  025%=      5-min Rain = 0
KEA1 152255Z 18011KT 36/12 A3003 RMK A01 T03630124  RH  024%=      5-min Rain = 0
KEA1 152256Z 19010KT 36/12 A3003 RMK A01 T03630123  RH  024%=      5-min Rain = 0
KEA1 152257Z 20013KT 36/12 A3003 RMK A01 T03630123  RH  024%=      5-min Rain = 0
KEA1 152258Z 20013KT 36/12 A3003 RMK A01 T03630120  RH  023%=      5-min Rain = 0
KEA1 152259Z 21013KT 36/12 A3003 RMK A01 T03620121  RH  023%=      5-min Rain = 0
KEA1 152300Z 19016KT 36/12 A3002 RMK A01 T03640121  RH  023%=      5-min Rain = 0
KEA1 152301Z 20014G19KT 36/12 A3002 RMK A01 T03640120  RH  023%=      5-min Rain = 0
KEA1 152302Z 21012KT 36/12 A3003 RMK A01 T03610120  RH  024%=      5-min Rain = 0
KEA1 152303Z 21009KT 36/12 A3003 RMK A01 T03590120  RH  024%=      5-min Rain = 0
KEA1 152304Z 21010KT 36/13 A3003 RMK A01 T03590126  RH  025%=      5-min Rain = 0
KEA1 152305Z 22012KT 36/12 A3003 RMK A01 T03610124  RH  024%=      5-min Rain = 0
KEA1 152306Z 20007KT 36/12 A3003 RMK A01 T03600118  RH  023%=      5-min Rain = 0
KEA1 152307Z 21011KT 36/12 A3003 RMK A01 T03580118  RH  023%=      5-min Rain = 0
KEA1 152308Z 21012KT 36/12 A3003 RMK A01 T03590117  RH  023%=      5-min Rain = 0
KEA1 152309Z 21007KT 36/12 A3003 RMK A01 T03590116  RH  023%=      5-min Rain = 0
KEA1 152310Z 19004KT 36/12 A3003 RMK A01 T03570115  RH  023%=      5-min Rain = 0
KEA1 152311Z 20005KT 36/12 A3003 RMK A01 T03570116  RH  023%=      5-min Rain = 0
KEA1 152312Z 21010G15KT 36/13 A3002 RMK A01 T03610130  RH  025%=      5-min Rain = 0
KEA1 152313Z 20014KT 36/12 A3002 RMK A01 T03640121  RH  023%=      5-min Rain = 0
KEA1 152314Z 19010KT 36/12 A3002 RMK A01 T03640118  RH  023%=      5-min Rain = 0
KEA1 152315Z 18009KT 36/12 A3002 RMK A01 T03640120  RH  023%=      5-min Rain = 0
KEA1 152316Z 19008KT 36/12 A3002 RMK A01 T03640121  RH  023%=      5-min Rain = 0
KEA1 152317Z 19010G15KT 36/12 A3002 RMK A01 T03630120  RH  023%=      5-min Rain = 0
KEA1 152318Z 21016KT 36/12 A3002 RMK A01 T03640121  RH  023%=      5-min Rain = 0
KEA1 152319Z 21012KT 36/12 A3002 RMK A01 T03630120  RH  023%=      5-min Rain = 0
KEA1 152320Z 21008KT 36/12 A3002 RMK A01 T03610117  RH  023%=      5-min Rain = 0
KEA1 152321Z 21006KT 36/12 A3002 RMK A01 T03590118  RH  023%=      5-min Rain = 0
KEA1 152322Z 20007KT 36/12 A3002 RMK A01 T03610121  RH  024%=      5-min Rain = 0
KEA1 152323Z 21009KT 36/13 A3002 RMK A01 T03640128  RH  024%=      5-min Rain = 0
KEA1 152324Z 22008KT 37/12 A3002 RMK A01 T03650123  RH  023%=      5-min Rain = 0
KEA1 152325Z 21007KT 36/12 A3002 RMK A01 T03610122  RH  024%=      5-min Rain = 0
KEA1 152326Z 20009KT 36/12 A3002 RMK A01 T03600122  RH  024%=      5-min Rain = 0
KEA1 152327Z 20010KT 36/12 A3002 RMK A01 T03630119  RH  023%=      5-min Rain = 0
KEA1 152328Z 20009KT 36/12 A3002 RMK A01 T03630118  RH  023%=      5-min Rain = 0
KEA1 152329Z 21008KT 36/12 A3002 RMK A01 T03610117  RH  023%=      5-min Rain = 0
KEA1 152330Z 21008KT 36/12 A3002 RMK A01 T03590119  RH  024%=      5-min Rain = 0
KEA1 152331Z 21006KT 36/12 A3002 RMK A01 T03590119  RH  023%=      5-min Rain = 0
KEA1 152332Z 22006KT 36/12 A3002 RMK A01 T03600119  RH  023%=      5-min Rain = 0
KEA1 152333Z 22005KT 36/12 A3002 RMK A01 T03600120  RH  024%=      5-min Rain = 0
KEA1 152334Z 20005G11KT 36/13 A3002 RMK A01 T03620125  RH  024%=      5-min Rain = 0
KEA1 152335Z 23009KT 37/13 A3002 RMK A01 T03660130  RH  024%=      5-min Rain = 0
KEA1 152336Z 23011KT 37/13 A3002 RMK A01 T03650127  RH  024%=      5-min Rain = 0
KEA1 152337Z 24010KT 36/12 A3002 RMK A01 T03640123  RH  024%=      5-min Rain = 0
KEA1 152338Z 23009KT 36/12 A3002 RMK A01 T03610121  RH  024%=      5-min Rain = 0
KEA1 152339Z 24009KT 36/12 A3002 RMK A01 T03600119  RH  023%=      5-min Rain = 0
KEA1 152340Z 23010KT 36/12 A3002 RMK A01 T03600119  RH  023%=      5-min Rain = 0
KEA1 152341Z 21009KT 36/12 A3002 RMK A01 T03610121  RH  024%=      5-min Rain = 0
KEA1 152342Z 20009KT 36/12 A3002 RMK A01 T03610122  RH  024%=      5-min Rain = 0
KEA1 152343Z 19009KT 36/12 A3002 RMK A01 T03610121  RH  024%=      5-min Rain = 0
KEA1 152344Z 19009KT 36/12 A3002 RMK A01 T03610119  RH  023%=      5-min Rain = 0
KEA1 152345Z 19008KT 36/12 A3002 RMK A01 T03600119  RH  024%=      5-min Rain = 0
KEA1 152346Z 22008KT 36/12 A3002 RMK A01 T03590122  RH  024%=      5-min Rain = 0
KEA1 152347Z 24009KT 36/12 A3002 RMK A01 T03590123  RH  024%=      5-min Rain = 0
KEA1 152348Z 24011KT 36/12 A3002 RMK A01 T03610122  RH  024%=      5-min Rain = 0
KEA1 152349Z 25011KT 36/12 A3002 RMK A01 T03600121  RH  024%=      5-min Rain = 0
KEA1 152350Z 24009KT 36/12 A3002 RMK A01 T03580121  RH  024%=      5-min Rain = 0
KEA1 152351Z 24010KT 36/12 A3002 RMK A01 T03570122  RH  024%=      5-min Rain = 0
KEA1 152352Z 24013KT 36/12 A3002 RMK A01 T03570123  RH  024%=      5-min Rain = 0
KEA1 152353Z 25011KT 36/12 A3002 RMK A01 T03560123  RH  025%=      5-min Rain = 0
KEA1 152354Z 25009KT 36/13 A3002 RMK A01 T03550125  RH  025%=      5-min Rain = 0
KEA1 152355Z 22008KT 36/13 A3002 RMK A01 T03560125  RH  025%=      5-min Rain = 0
KEA1 152356Z 20007KT 36/13 A3002 RMK A01 T03560128  RH  025%=      5-min Rain = 0
KEA1 152357Z 20015G22KT 36/13 A3002 RMK A01 T03580131  RH  026%=      5-min Rain = 0
KEA1 152358Z 18020G25KT 36/15 A3002 RMK A01 T03560148  RH  029%=      5-min Rain = 0
KEA1 152359Z 18018KT 35/15 A3002 RMK A01 T03480152  RH  031%=      5-min Rain = 0
KEA1 160000Z 18015KT 34/15 A3003 RMK A01 T03420153  RH  032%=      5-min Rain = 0
KEA1 160001Z 17019G24KT 34/15 A3002 RMK A01 T03400154  RH  033%=      5-min Rain = 0
KEA1 160002Z 18020KT 34/16 A3002 RMK A01 T03380155  RH  033%=      5-min Rain = 0
KEA1 160003Z 18019KT 34/16 A3002 RMK A01 T03370155  RH  034%=      5-min Rain = 0
KEA1 160004Z 18021KT 34/16 A3002 RMK A01 T03360155  RH  034%=      5-min Rain = 0
KEA1 160005Z 18021KT 34/15 A3002 RMK A01 T03350154  RH  034%=      5-min Rain = 0
KEA1 160006Z 18024KT 33/15 A3002 RMK A01 T03330154  RH  034%=      5-min Rain = 0
KEA1 160007Z 18023G28KT 33/15 A3002 RMK A01 T03310154  RH  035%=      5-min Rain = 0
KEA1 160008Z 17023KT 33/16 A3002 RMK A01 T03280155  RH  035%=      5-min Rain = 0
KEA1 160009Z 17022KT 33/16 A3002 RMK A01 T03250155  RH  036%=      5-min Rain = 0
KEA1 160010Z 17022G28KT 32/16 A3002 RMK A01 T03230155  RH  036%=      5-min Rain = 0
KEA1 160011Z 18020KT 32/16 A3002 RMK A01 T03210155  RH  037%=      5-min Rain = 0
KEA1 160012Z 18019KT 32/16 A3002 RMK A01 T03220156  RH  037%=      5-min Rain = 0
KEA1 160013Z 17017G22KT 32/16 A3002 RMK A01 T03220156  RH  037%=      5-min Rain = 0
KEA1 160014Z 18019KT 32/16 A3002 RMK A01 T03230157  RH  037%=      5-min Rain = 0
KEA1 160015Z 17020KT 32/16 A3002 RMK A01 T03240157  RH  037%=      5-min Rain = 0
KEA1 160016Z 17017KT 33/16 A3002 RMK A01 T03250157  RH  037%=      5-min Rain = 0
KEA1 160017Z 18017G22KT 33/16 A3002 RMK A01 T03250158  RH  037%=      5-min Rain = 0
KEA1 160018Z 18021KT 33/16 A3002 RMK A01 T03260158  RH  036%=      5-min Rain = 0
KEA1 160019Z 18016KT 33/16 A3002 RMK A01 T03260158  RH  037%=      5-min Rain = 0
KEA1 160020Z 17021KT 33/16 A3002 RMK A01 T03250158  RH  037%=      5-min Rain = 0
KEA1 160021Z 17021KT 33/16 A3002 RMK A01 T03250158  RH  037%=      5-min Rain = 0
KEA1 160022Z 17021KT 32/16 A3002 RMK A01 T03230158  RH  037%=      5-min Rain = 0
KEA1 160023Z 18017KT 32/16 A3002 RMK A01 T03230159  RH  037%=      5-min Rain = 0
KEA1 160024Z 18017KT 32/16 A3002 RMK A01 T03230159  RH  037%=      5-min Rain = 0
KEA1 160025Z 18014KT 32/16 A3002 RMK A01 T03240159  RH  037%=      5-min Rain = 0
KEA1 160026Z 18016KT 33/16 A3002 RMK A01 T03250160  RH  037%=      5-min Rain = 0
KEA1 160027Z 18016KT 33/16 A3002 RMK A01 T03250160  RH  037%=      5-min Rain = 0
KEA1 160028Z 19019KT 33/16 A3002 RMK A01 T03250160  RH  037%=      5-min Rain = 0
KEA1 160029Z 19017KT 33/16 A3002 RMK A01 T03250160  RH  037%=      5-min Rain = 0
KEA1 160030Z 18018KT 33/16 A3002 RMK A01 T03250160  RH  037%=      5-min Rain = 0
KEA1 160031Z 18021KT 32/16 A3002 RMK A01 T03240159  RH  037%=      5-min Rain = 0
KEA1 160032Z 18020KT 32/16 A3002 RMK A01 T03240158  RH  037%=      5-min Rain = 0
KEA1 160033Z 18021KT 32/16 A3002 RMK A01 T03230158  RH  037%=      5-min Rain = 0
KEA1 160034Z 18018KT 32/16 A3002 RMK A01 T03230158  RH  037%=      5-min Rain = 0
KEA1 160035Z 18017KT 32/16 A3002 RMK A01 T03230158  RH  037%=      5-min Rain = 0
KEA1 160036Z 18016KT 32/16 A3002 RMK A01 T03240159  RH  037%=      5-min Rain = 0
KEA1 160037Z 18019KT 32/16 A3002 RMK A01 T03230158  RH  037%=      5-min Rain = 0
KEA1 160038Z 19017KT 32/16 A3002 RMK A01 T03240159  RH  037%=      5-min Rain = 0
KEA1 160039Z 19017KT 32/16 A3002 RMK A01 T03240158  RH  037%=      5-min Rain = 0
KEA1 160040Z 19016KT 32/16 A3002 RMK A01 T03240159  RH  037%=      5-min Rain = 0
KEA1 160041Z 18013KT 32/16 A3002 RMK A01 T03230158  RH  037%=      5-min Rain = 0
KEA1 160042Z 19015KT 32/16 A3003 RMK A01 T03230157  RH  037%=      5-min Rain = 0
KEA1 160043Z 18016KT 32/16 A3002 RMK A01 T03240157  RH  037%=      5-min Rain = 0
KEA1 160044Z 19015KT 32/16 A3002 RMK A01 T03230156  RH  037%=      5-min Rain = 0
KEA1 160045Z 18017KT 32/16 A3002 RMK A01 T03230156  RH  037%=      5-min Rain = 0
KEA1 160046Z 19018KT 32/16 A3002 RMK A01 T03230156  RH  037%=      5-min Rain = 0
KEA1 160047Z 19016KT 32/16 A3003 RMK A01 T03230156  RH  037%=      5-min Rain = 0
KEA1 160048Z 18012KT 32/16 A3003 RMK A01 T03230156  RH  037%=      5-min Rain = 0
KEA1 160049Z 18015G20KT 32/16 A3003 RMK A01 T03230156  RH  037%=      5-min Rain = 0
KEA1 160050Z 18017KT 32/16 A3003 RMK A01 T03230155  RH  036%=      5-min Rain = 0
KEA1 160051Z 18016KT 32/16 A3003 RMK A01 T03220156  RH  037%=      5-min Rain = 0
KEA1 160052Z 18016KT 32/16 A3003 RMK A01 T03220157  RH  037%=      5-min Rain = 0
KEA1 160053Z 17014KT 32/16 A3003 RMK A01 T03210158  RH  037%=      5-min Rain = 0
KEA1 160054Z 17013KT 32/16 A3003 RMK A01 T03210158  RH  038%=      5-min Rain = 0
KEA1 160055Z 18014KT 32/16 A3003 RMK A01 T03200158  RH  038%=      5-min Rain = 0
KEA1 160056Z 18016KT 32/16 A3003 RMK A01 T03200158  RH  038%=      5-min Rain = 0
KEA1 160057Z 18015KT 32/16 A3003 RMK A01 T03190157  RH  038%=      5-min Rain = 0
KEA1 160058Z 18016KT 32/16 A3003 RMK A01 T03180157  RH  038%=      5-min Rain = 0
KEA1 160059Z 18015KT 32/16 A3003 RMK A01 T03180156  RH  038%=      5-min Rain = 0
KEA1 160100Z 18014KT 32/16 A3003 RMK A01 T03180156  RH  038%=      5-min Rain = 0
KEA1 160101Z 18015KT 32/16 A3003 RMK A01 T03170156  RH  038%=      5-min Rain = 0
KEA1 160102Z 19014KT 32/16 A3003 RMK A01 T03170155  RH  038%=      5-min Rain = 0
KEA1 160103Z 19012KT 32/16 A3003 RMK A01 T03170155  RH  038%=      5-min Rain = 0
KEA1 160104Z 18014G19KT 32/16 A3003 RMK A01 T03170155  RH  038%=      5-min Rain = 0
KEA1 160105Z 19015KT 32/15 A3003 RMK A01 T03160154  RH  038%=      5-min Rain = 0
KEA1 160106Z 18015KT 32/15 A3002 RMK A01 T03160154  RH  038%=      5-min Rain = 0
KEA1 160107Z 18014KT 32/15 A3003 RMK A01 T03160154  RH  038%=      5-min Rain = 0
KEA1 160108Z 18011KT 32/15 A3003 RMK A01 T03160154  RH  038%=      5-min Rain = 0
KEA1 160109Z 18013KT 32/15 A3003 RMK A01 T03150154  RH  038%=      5-min Rain = 0
KEA1 160110Z 18013KT 32/15 A3003 RMK A01 T03150154  RH  038%=      5-min Rain = 0
KEA1 160111Z 18014KT 31/15 A3003 RMK A01 T03140154  RH  038%=      5-min Rain = 0
KEA1 160112Z 18014KT 31/15 A3003 RMK A01 T03140154  RH  038%=      5-min Rain = 0
KEA1 160113Z 18010KT 31/15 A3003 RMK A01 T03140154  RH  038%=      5-min Rain = 0
KEA1 160114Z 17010KT 31/15 A3003 RMK A01 T03130154  RH  038%=      5-min Rain = 0
KEA1 160115Z 17010KT 31/15 A3003 RMK A01 T03120154  RH  039%=      5-min Rain = 0
KEA1 160116Z 17010KT 31/15 A3003 RMK A01 T03110154  RH  039%=      5-min Rain = 0
KEA1 160117Z 17012KT 31/15 A3003 RMK A01 T03100154  RH  039%=      5-min Rain = 0
KEA1 160118Z 18011KT 31/15 A3003 RMK A01 T03090153  RH  039%=      5-min Rain = 0
KEA1 160119Z 17010KT 31/15 A3004 RMK A01 T03090154  RH  039%=      5-min Rain = 0
KEA1 160120Z 17010KT 31/15 A3004 RMK A01 T03080153  RH  039%=      5-min Rain = 0
KEA1 160121Z 17012KT 31/15 A3003 RMK A01 T03070153  RH  039%=      5-min Rain = 0
KEA1 160122Z 17013KT 31/15 A3003 RMK A01 T03070153  RH  039%=      5-min Rain = 0
KEA1 160123Z 16012KT 31/15 A3004 RMK A01 T03070152  RH  039%=      5-min Rain = 0
KEA1 160124Z 16012KT 31/15 A3003 RMK A01 T03060152  RH  039%=      5-min Rain = 0
KEA1 160125Z 16011KT 31/15 A3004 RMK A01 T03060152  RH  039%=      5-min Rain = 0
KEA1 160126Z 17012KT 31/15 A3003 RMK A01 T03050152  RH  040%=      5-min Rain = 0
KEA1 160127Z 17012KT 31/15 A3003 RMK A01 T03050152  RH  040%=      5-min Rain = 0
KEA1 160128Z 17013KT 30/15 A3003 RMK A01 T03040152  RH  040%=      5-min Rain = 0
KEA1 160129Z 17012KT 30/15 A3003 RMK A01 T03030152  RH  040%=      5-min Rain = 0
KEA1 160130Z 17012KT 30/15 A3003 RMK A01 T03030152  RH  040%=      5-min Rain = 0
KEA1 160131Z 17012KT 30/15 A3003 RMK A01 T03030152  RH  040%=      5-min Rain = 0
KEA1 160132Z 17012KT 30/15 A3003 RMK A01 T03030153  RH  040%=      5-min Rain = 0
KEA1 160133Z 17010KT 30/15 A3003 RMK A01 T03020152  RH  040%=      5-min Rain = 0
KEA1 160134Z 17011KT 30/15 A3004 RMK A01 T03010152  RH  041%=      5-min Rain = 0
KEA1 160135Z 17011KT 30/15 A3003 RMK A01 T03000153  RH  041%=      5-min Rain = 0
KEA1 160136Z 17012KT 30/15 A3003 RMK A01 T02990152  RH  041%=      5-min Rain = 0
KEA1 160137Z 17012KT 30/15 A3003 RMK A01 T02990153  RH  041%=      5-min Rain = 0
KEA1 160138Z 16011KT 30/15 A3003 RMK A01 T02990153  RH  041%=      5-min Rain = 0
KEA1 160139Z 16011KT 30/15 A3003 RMK A01 T02980153  RH  041%=      5-min Rain = 0
KEA1 160140Z 16010KT 30/15 A3003 RMK A01 T02970153  RH  042%=      5-min Rain = 0
KEA1 160141Z 16010KT 30/15 A3003 RMK A01 T02960154  RH  042%=      5-min Rain = 0
KEA1 160142Z 16011KT 30/16 A3003 RMK A01 T02950155  RH  043%=      5-min Rain = 0
KEA1 160143Z 16012KT 29/16 A3003 RMK A01 T02940156  RH  043%=      5-min Rain = 0
KEA1 160144Z 16011KT 29/16 A3003 RMK A01 T02930156  RH  043%=      5-min Rain = 0
KEA1 160145Z 16011KT 29/16 A3003 RMK A01 T02930156  RH  043%=      5-min Rain = 0
KEA1 160146Z 16010KT 29/16 A3003 RMK A01 T02910156  RH  044%=      5-min Rain = 0
KEA1 160147Z 16012KT 29/16 A3003 RMK A01 T02900155  RH  044%=      5-min Rain = 0
KEA1 160148Z 16011KT 29/16 A3003 RMK A01 T02900155  RH  044%=      5-min Rain = 0
KEA1 160149Z 16012KT 29/16 A3003 RMK A01 T02900156  RH  044%=      5-min Rain = 0
KEA1 160150Z 16012KT 29/16 A3003 RMK A01 T02900155  RH  044%=      5-min Rain = 0
KEA1 160151Z 16011KT 29/16 A3003 RMK A01 T02900155  RH  044%=      5-min Rain = 0
KEA1 160152Z 16011KT 29/16 A3003 RMK A01 T02890155  RH  044%=      5-min Rain = 0
KEA1 160153Z 16011KT 29/16 A3003 RMK A01 T02890155  RH  044%=      5-min Rain = 0
KEA1 160154Z 16012KT 29/15 A3003 RMK A01 T02890154  RH  044%=      5-min Rain = 0
KEA1 160155Z 16012KT 29/15 A3003 RMK A01 T02880154  RH  044%=      5-min Rain = 0
KEA1 160156Z 16011KT 29/15 A3003 RMK A01 T02880153  RH  044%=      5-min Rain = 0
KEA1 160157Z 16012KT 29/15 A3003 RMK A01 T02880153  RH  044%=      5-min Rain = 0
KEA1 160158Z 16012KT 29/15 A3003 RMK A01 T02870153  RH  044%=      5-min Rain = 0
KEA1 160159Z 16011KT 29/15 A3003 RMK A01 T02870152  RH  044%=      5-min Rain = 0
KEA1 160200Z 16009KT 29/15 A3003 RMK A01 T02860152  RH  044%=      5-min Rain = 0
KEA1 160201Z 16010KT 29/15 A3003 RMK A01 T02850152  RH  044%=      5-min Rain = 0
KEA1 160202Z 16009KT 28/15 A3003 RMK A01 T02840152  RH  044%=      5-min Rain = 0
KEA1 160203Z 16010KT 28/15 A3003 RMK A01 T02830152  RH  045%=      5-min Rain = 0
KEA1 160204Z 16012KT 28/15 A3003 RMK A01 T02820152  RH  045%=      5-min Rain = 0
KEA1 160205Z 17011KT 28/15 A3003 RMK A01 T02820152  RH  045%=      5-min Rain = 0
KEA1 160206Z 17010KT 28/15 A3003 RMK A01 T02830152  RH  045%=      5-min Rain = 0
KEA1 160207Z 17011KT 28/15 A3003 RMK A01 T02820152  RH  045%=      5-min Rain = 0
KEA1 160208Z 17010KT 28/15 A3003 RMK A01 T02820153  RH  045%=      5-min Rain = 0
KEA1 160209Z 17010KT 28/15 A3003 RMK A01 T02820153  RH  045%=      5-min Rain = 0
KEA1 160210Z 17010KT 28/15 A3003 RMK A01 T02810152  RH  045%=      5-min Rain = 0
KEA1 160211Z 17011KT 28/15 A3003 RMK A01 T02810152  RH  045%=      5-min Rain = 0
KEA1 160212Z 16011KT 28/15 A3003 RMK A01 T02810152  RH  045%=      5-min Rain = 0
KEA1 160213Z 17011KT 28/15 A3003 RMK A01 T02810153  RH  046%=      5-min Rain = 0
KEA1 160214Z 17011KT 28/15 A3003 RMK A01 T02800152  RH  046%=      5-min Rain = 0
KEA1 160215Z 17011KT 28/15 A3003 RMK A01 T02800152  RH  046%=      5-min Rain = 0
KEA1 160216Z 17011KT 28/15 A3003 RMK A01 T02810152  RH  046%=      5-min Rain = 0
KEA1 160217Z 17012KT 28/15 A3003 RMK A01 T02810152  RH  045%=      5-min Rain = 0
KEA1 160218Z 17012KT 28/15 A3003 RMK A01 T02810152  RH  045%=      5-min Rain = 0
KEA1 160219Z 17011KT 28/15 A3003 RMK A01 T02810152  RH  045%=      5-min Rain = 0
KEA1 160220Z 17011KT 28/15 A3003 RMK A01 T02800151  RH  045%=      5-min Rain = 0
KEA1 160221Z 17011KT 28/15 A3003 RMK A01 T02800151  RH  045%=      5-min Rain = 0
KEA1 160222Z 17011KT 28/15 A3003 RMK A01 T02790151  RH  045%=      5-min Rain = 0
KEA1 160223Z 17010KT 28/15 A3003 RMK A01 T02790151  RH  046%=      5-min Rain = 0
KEA1 160224Z 17012KT 28/15 A3003 RMK A01 T02780151  RH  046%=      5-min Rain = 0
KEA1 160225Z 17011KT 28/15 A3003 RMK A01 T02780151  RH  046%=      5-min Rain = 0
KEA1 160226Z 17010KT 28/15 A3004 RMK A01 T02780150  RH  046%=      5-min Rain = 0
KEA1 160227Z 17011KT 28/15 A3004 RMK A01 T02770150  RH  046%=      5-min Rain = 0
KEA1 160228Z 17011KT 28/15 A3004 RMK A01 T02770150  RH  046%=      5-min Rain = 0
KEA1 160229Z 17011KT 28/15 A3004 RMK A01 T02770150  RH  046%=      5-min Rain = 0
KEA1 160230Z 17010KT 28/15 A3004 RMK A01 T02760150  RH  046%=      5-min Rain = 0
KEA1 160231Z 17010KT 28/15 A3004 RMK A01 T02760150  RH  046%=      5-min Rain = 0
KEA1 160232Z 17010KT 28/15 A3004 RMK A01 T02750150  RH  046%=      5-min Rain = 0
KEA1 160233Z 17010KT 28/15 A3004 RMK A01 T02750150  RH  046%=      5-min Rain = 0
KEA1 160234Z 17010KT 27/15 A3004 RMK A01 T02740150  RH  047%=      5-min Rain = 0
KEA1 160235Z 17010KT 27/15 A3004 RMK A01 T02730150  RH  047%=      5-min Rain = 0
KEA1 160236Z 17010KT 27/15 A3004 RMK A01 T02730150  RH  047%=      5-min Rain = 0
KEA1 160237Z 17011KT 27/15 A3004 RMK A01 T02730149  RH  047%=      5-min Rain = 0
KEA1 160238Z 17010KT 27/15 A3004 RMK A01 T02720149  RH  047%=      5-min Rain = 0
KEA1 160239Z 17010KT 27/15 A3004 RMK A01 T02720149  RH  047%=      5-min Rain = 0
KEA1 160240Z 17009KT 27/15 A3005 RMK A01 T02720149  RH  047%=      5-min Rain = 0
KEA1 160241Z 17010KT 27/15 A3005 RMK A01 T02710149  RH  047%=      5-min Rain = 0
KEA1 160242Z 18010KT 27/15 A3005 RMK A01 T02710149  RH  047%=      5-min Rain = 0
KEA1 160243Z 17010KT 27/15 A3005 RMK A01 T02700149  RH  047%=      5-min Rain = 0
KEA1 160244Z 17010KT 27/15 A3005 RMK A01 T02700149  RH  047%=      5-min Rain = 0
KEA1 160245Z 18010KT 27/15 A3005 RMK A01 T02700148  RH  047%=      5-min Rain = 0
KEA1 160246Z 17010KT 27/15 A3005 RMK A01 T02700149  RH  047%=      5-min Rain = 0
KEA1 160247Z 17011KT 27/15 A3005 RMK A01 T02690148  RH  048%=      5-min Rain = 0
KEA1 160248Z 18009KT 27/15 A3005 RMK A01 T02690148  RH  048%=      5-min Rain = 0
KEA1 160249Z 17010KT 27/15 A3005 RMK A01 T02690148  RH  048%=      5-min Rain = 0
KEA1 160250Z 17010KT 27/15 A3005 RMK A01 T02680148  RH  048%=      5-min Rain = 0
KEA1 160251Z 17009KT 27/15 A3005 RMK A01 T02680148  RH  048%=      5-min Rain = 0
KEA1 160252Z 17010KT 27/15 A3005 RMK A01 T02680148  RH  048%=      5-min Rain = 0
KEA1 160253Z 17010KT 27/15 A3005 RMK A01 T02670148  RH  048%=      5-min Rain = 0
KEA1 160254Z 17010KT 27/15 A3005 RMK A01 T02670148  RH  048%=      5-min Rain = 0
KEA1 160255Z 17011KT 27/15 A3005 RMK A01 T02670148  RH  048%=      5-min Rain = 0
KEA1 160256Z 17011KT 27/15 A3005 RMK A01 T02670148  RH  048%=      5-min Rain = 0
KEA1 160257Z 17010KT 27/15 A3005 RMK A01 T02670148  RH  048%=      5-min Rain = 0
KEA1 160258Z 17010KT 27/15 A3005 RMK A01 T02670148  RH  048%=      5-min Rain = 0
KEA1 160259Z 17010KT 27/15 A3005 RMK A01 T02660148  RH  048%=      5-min Rain = 0
KEA1 160300Z 17010KT 27/15 A3005 RMK A01 T02660148  RH  048%=      5-min Rain = 0
KEA1 160301Z 17010KT 27/15 A3005 RMK A01 T02660148  RH  048%=      5-min Rain = 0
KEA1 160302Z 17010KT 27/15 A3005 RMK A01 T02660148  RH  048%=      5-min Rain = 0
KEA1 160303Z 17010KT 27/15 A3005 RMK A01 T02660148  RH  048%=      5-min Rain = 0
KEA1 160304Z 17009KT 27/15 A3005 RMK A01 T02660148  RH  048%=      5-min Rain = 0
KEA1 160305Z 18009KT 27/15 A3006 RMK A01 T02650148  RH  049%=      5-min Rain = 0
KEA1 160306Z 18009KT 26/15 A3006 RMK A01 T02640147  RH  049%=      5-min Rain = 0
KEA1 160307Z 18009KT 26/15 A3006 RMK A01 T02630147  RH  049%=      5-min Rain = 0
KEA1 160308Z 18010KT 26/15 A3006 RMK A01 T02640147  RH  049%=      5-min Rain = 0
KEA1 160309Z 18010KT 26/15 A3006 RMK A01 T02630147  RH  049%=      5-min Rain = 0
KEA1 160310Z 18010KT 26/15 A3006 RMK A01 T02630147  RH  049%=      5-min Rain = 0
KEA1 160311Z 18009KT 26/15 A3006 RMK A01 T02630147  RH  049%=      5-min Rain = 0
KEA1 160312Z 18009KT 26/15 A3006 RMK A01 T02630146  RH  049%=      5-min Rain = 0
KEA1 160313Z 18009KT 26/15 A3006 RMK A01 T02630147  RH  049%=      5-min Rain = 0
KEA1 160314Z 18009KT 26/15 A3006 RMK A01 T02620146  RH  049%=      5-min Rain = 0
KEA1 160315Z 18009KT 26/15 A3006 RMK A01 T02610146  RH  049%=      5-min Rain = 0
KEA1 160316Z 18009KT 26/15 A3006 RMK A01 T02610146  RH  049%=      5-min Rain = 0
KEA1 160317Z 18009KT 26/15 A3006 RMK A01 T02600146  RH  049%=      5-min Rain = 0
KEA1 160318Z 18010KT 26/15 A3006 RMK A01 T02600146  RH  049%=      5-min Rain = 0
KEA1 160319Z 18009KT 26/15 A3006 RMK A01 T02600145  RH  049%=      5-min Rain = 0
KEA1 160320Z 18010KT 26/15 A3006 RMK A01 T02600146  RH  049%=      5-min Rain = 0
KEA1 160321Z 18010KT 26/15 A3006 RMK A01 T02600146  RH  049%=      5-min Rain = 0
KEA1 160322Z 18010KT 26/15 A3006 RMK A01 T02600146  RH  049%=      5-min Rain = 0
KEA1 160323Z 18009KT 26/15 A3006 RMK A01 T02600146  RH  049%=      5-min Rain = 0
KEA1 160324Z 18009KT 26/15 A3006 RMK A01 T02600146  RH  049%=      5-min Rain = 0
KEA1 160325Z 18010KT 26/15 A3006 RMK A01 T02600146  RH  049%=      5-min Rain = 0
KEA1 160326Z 17011KT 26/15 A3006 RMK A01 T02600146  RH  049%=      5-min Rain = 0
KEA1 160327Z 17010KT 26/15 A3006 RMK A01 T02600146  RH  049%=      5-min Rain = 0
KEA1 160328Z 18011KT 26/15 A3006 RMK A01 T02600146  RH  049%=      5-min Rain = 0
KEA1 160329Z 18011KT 26/15 A3006 RMK A01 T02610146  RH  049%=      5-min Rain = 0
KEA1 160330Z 17010KT 26/15 A3006 RMK A01 T02610145  RH  049%=      5-min Rain = 0
KEA1 160331Z 17010KT 26/15 A3006 RMK A01 T02610145  RH  049%=      5-min Rain = 0
KEA1 160332Z 18010KT 26/15 A3006 RMK A01 T02610145  RH  049%=      5-min Rain = 0
KEA1 160333Z 18010KT 26/15 A3006 RMK A01 T02610145  RH  049%=      5-min Rain = 0
KEA1 160334Z 18010KT 26/15 A3006 RMK A01 T02610145  RH  049%=      5-min Rain = 0
KEA1 160335Z 18009KT 26/15 A3006 RMK A01 T02610145  RH  049%=      5-min Rain = 0
KEA1 160336Z 18010KT 26/15 A3006 RMK A01 T02600145  RH  049%=      5-min Rain = 0
KEA1 160337Z 18010KT 26/15 A3006 RMK A01 T02600145  RH  049%=      5-min Rain = 0
KEA1 160338Z 18010KT 26/14 A3006 RMK A01 T02600144  RH  049%=      5-min Rain = 0
KEA1 160339Z 18010KT 26/14 A3006 RMK A01 T02600144  RH  049%=      5-min Rain = 0
KEA1 160340Z 18010KT 26/14 A3006 RMK A01 T02600144  RH  049%=      5-min Rain = 0
KEA1 160341Z 19010KT 26/14 A3006 RMK A01 T02600144  RH  049%=      5-min Rain = 0
KEA1 160342Z 19010KT 26/14 A3006 RMK A01 T02600144  RH  049%=      5-min Rain = 0
KEA1 160343Z 19010KT 26/14 A3006 RMK A01 T02600143  RH  049%=      5-min Rain = 0
KEA1 160344Z 19010KT 26/14 A3006 RMK A01 T02610143  RH  048%=      5-min Rain = 0
KEA1 160345Z 19010KT 26/14 A3006 RMK A01 T02610143  RH  048%=      5-min Rain = 0
KEA1 160346Z 19010KT 26/14 A3006 RMK A01 T02610143  RH  048%=      5-min Rain = 0
KEA1 160347Z 19010KT 26/14 A3006 RMK A01 T02610143  RH  048%=      5-min Rain = 0
KEA1 160348Z 19010KT 26/14 A3006 RMK A01 T02610142  RH  048%=      5-min Rain = 0
KEA1 160349Z 19010KT 26/14 A3006 RMK A01 T02610142  RH  048%=      5-min Rain = 0
KEA1 160350Z 19010KT 26/14 A3006 RMK A01 T02610142  RH  048%=      5-min Rain = 0
KEA1 160351Z 19010KT 26/14 A3006 RMK A01 T02620141  RH  047%=      5-min Rain = 0
KEA1 160352Z 19010KT 26/14 A3006 RMK A01 T02620141  RH  047%=      5-min Rain = 0
KEA1 160353Z 19011KT 26/14 A3006 RMK A01 T02610140  RH  047%=      5-min Rain = 0
KEA1 160354Z 19010KT 26/14 A3006 RMK A01 T02620141  RH  047%=      5-min Rain = 0
KEA1 160355Z 19011KT 26/14 A3006 RMK A01 T02620141  RH  047%=      5-min Rain = 0
KEA1 160356Z 19010KT 26/14 A3006 RMK A01 T02620140  RH  047%=      5-min Rain = 0
KEA1 160357Z 19010KT 26/14 A3006 RMK A01 T02630140  RH  047%=      5-min Rain = 0
KEA1 160358Z 19010KT 26/14 A3006 RMK A01 T02630140  RH  047%=      5-min Rain = 0
KEA1 160359Z 19011KT 26/14 A3006 RMK A01 T02620140  RH  047%=      5-min Rain = 0
KEA1 160400Z 19010KT 26/14 A3006 RMK A01 T02620139  RH  047%=      5-min Rain = 0
KEA1 160401Z 19011KT 26/14 A3006 RMK A01 T02620139  RH  047%=      5-min Rain = 0
KEA1 160402Z 19011KT 26/14 A3006 RMK A01 T02620139  RH  047%=      5-min Rain = 0
KEA1 160403Z 18010KT 26/14 A3006 RMK A01 T02620138  RH  046%=      5-min Rain = 0
KEA1 160404Z 18012KT 26/14 A3006 RMK A01 T02630138  RH  046%=      5-min Rain = 0
KEA1 160405Z 18011KT 26/14 A3006 RMK A01 T02630137  RH  046%=      5-min Rain = 0
KEA1 160406Z 19011KT 26/14 A3007 RMK A01 T02630136  RH  045%=      5-min Rain = 0
KEA1 160407Z 18011KT 26/14 A3007 RMK A01 T02640136  RH  045%=      5-min Rain = 0
KEA1 160408Z 18012KT 26/14 A3007 RMK A01 T02640135  RH  045%=      5-min Rain = 0
KEA1 160409Z 18012KT 27/14 A3007 RMK A01 T02650135  RH  045%=      5-min Rain = 0
KEA1 160410Z 18011KT 26/14 A3007 RMK A01 T02640135  RH  045%=      5-min Rain = 0
KEA1 160411Z 18011KT 26/13 A3007 RMK A01 T02640134  RH  045%=      5-min Rain = 0
KEA1 160412Z 18012KT 26/13 A3007 RMK A01 T02630134  RH  045%=      5-min Rain = 0
KEA1 160413Z 18011KT 26/13 A3007 RMK A01 T02630133  RH  044%=      5-min Rain = 0
KEA1 160414Z 18012KT 26/13 A3007 RMK A01 T02640133  RH  044%=      5-min Rain = 0
KEA1 160415Z 18012KT 26/13 A3007 RMK A01 T02630132  RH  044%=      5-min Rain = 0
KEA1 160416Z 18012KT 26/13 A3007 RMK A01 T02630132  RH  044%=      5-min Rain = 0
KEA1 160417Z 18013KT 26/13 A3007 RMK A01 T02640132  RH  044%=      5-min Rain = 0
KEA1 160418Z 18011KT 27/13 A3007 RMK A01 T02650131  RH  044%=      5-min Rain = 0
KEA1 160419Z 18011KT 27/13 A3007 RMK A01 T02650131  RH  044%=      5-min Rain = 0
KEA1 160420Z 18011KT 26/13 A3007 RMK A01 T02640130  RH  043%=      5-min Rain = 0
KEA1 160421Z 17010KT 26/13 A3007 RMK A01 T02640130  RH  043%=      5-min Rain = 0
KEA1 160422Z 18011KT 27/13 A3007 RMK A01 T02650130  RH  043%=      5-min Rain = 0
KEA1 160423Z 18010KT 26/13 A3007 RMK A01 T02640129  RH  043%=      5-min Rain = 0
KEA1 160424Z 18011KT 26/13 A3007 RMK A01 T02640129  RH  043%=      5-min Rain = 0
KEA1 160425Z 18012KT 26/13 A3007 RMK A01 T02630128  RH  043%=      5-min Rain = 0
KEA1 160426Z 17011KT 26/13 A3007 RMK A01 T02630128  RH  043%=      5-min Rain = 0
KEA1 160427Z 17010KT 26/13 A3007 RMK A01 T02630127  RH  043%=      5-min Rain = 0
KEA1 160428Z 18011KT 26/13 A3007 RMK A01 T02630127  RH  043%=      5-min Rain = 0
KEA1 160429Z 17011KT 26/13 A3007 RMK A01 T02640127  RH  043%=      5-min Rain = 0
KEA1 160430Z 17010KT 26/13 A3007 RMK A01 T02640127  RH  043%=      5-min Rain = 0
KEA1 160431Z 17010KT 26/13 A3007 RMK A01 T02640127  RH  043%=      5-min Rain = 0
KEA1 160432Z 17010KT 26/13 A3007 RMK A01 T02630128  RH  043%=      5-min Rain = 0
KEA1 160433Z 17010KT 26/13 A3007 RMK A01 T02630127  RH  043%=      5-min Rain = 0
KEA1 160434Z 17010KT 26/13 A3007 RMK A01 T02620127  RH  043%=      5-min Rain = 0
KEA1 160435Z 17009KT 26/13 A3007 RMK A01 T02620126  RH  043%=      5-min Rain = 0
KEA1 160436Z 16010KT 26/13 A3008 RMK A01 T02620126  RH  043%=      5-min Rain = 0
KEA1 160437Z 16010KT 26/13 A3008 RMK A01 T02620126  RH  043%=      5-min Rain = 0
KEA1 160438Z 15010KT 26/13 A3008 RMK A01 T02620126  RH  043%=      5-min Rain = 0
KEA1 160439Z 15011KT 26/13 A3008 RMK A01 T02610126  RH  043%=      5-min Rain = 0
KEA1 160440Z 14011KT 26/13 A3008 RMK A01 T02600126  RH  043%=      5-min Rain = 0
KEA1 160441Z 14011KT 26/13 A3008 RMK A01 T02600127  RH  044%=      5-min Rain = 0
KEA1 160442Z 15012KT 26/13 A3008 RMK A01 T02580128  RH  044%=      5-min Rain = 0
KEA1 160443Z 15010KT 26/13 A3008 RMK A01 T02580129  RH  045%=      5-min Rain = 0
KEA1 160444Z 15010KT 26/13 A3008 RMK A01 T02560129  RH  045%=      5-min Rain = 0
KEA1 160445Z 16011KT 26/13 A3008 RMK A01 T02550130  RH  046%=      5-min Rain = 0
KEA1 160446Z 16012KT 26/13 A3008 RMK A01 T02550131  RH  046%=      5-min Rain = 0
KEA1 160447Z 16011KT 26/13 A3008 RMK A01 T02550131  RH  046%=      5-min Rain = 0
KEA1 160448Z 16011KT 25/13 A3008 RMK A01 T02540131  RH  046%=      5-min Rain = 0
KEA1 160449Z 16012KT 25/13 A3008 RMK A01 T02540131  RH  047%=      5-min Rain = 0
KEA1 160450Z 16011KT 25/13 A3008 RMK A01 T02540132  RH  047%=      5-min Rain = 0
KEA1 160451Z 16011KT 25/13 A3008 RMK A01 T02540131  RH  047%=      5-min Rain = 0
KEA1 160452Z 16011KT 25/13 A3008 RMK A01 T02540131  RH  047%=      5-min Rain = 0
KEA1 160453Z 16011KT 25/13 A3008 RMK A01 T02540132  RH  047%=      5-min Rain = 0
KEA1 160454Z 16011KT 25/13 A3008 RMK A01 T02530132  RH  047%=      5-min Rain = 0
KEA1 160455Z 16010KT 25/13 A3008 RMK A01 T02530132  RH  047%=      5-min Rain = 0
KEA1 160456Z 16010KT 25/13 A3007 RMK A01 T02530132  RH  047%=      5-min Rain = 0
KEA1 160457Z 16010KT 25/13 A3007 RMK A01 T02530132  RH  047%=      5-min Rain = 0
KEA1 160458Z 16010KT 25/13 A3007 RMK A01 T02530132  RH  047%=      5-min Rain = 0
KEA1 160459Z 16011KT 25/13 A3007 RMK A01 T02520132  RH  047%=      5-min Rain = 0

Page generated in 0.0786 seconds.